Time,TemperatureF,DewpointF,PressureIn,WindDirection,WindDirectionDegrees,WindSpeedMPH,WindSpeedGustMPH,Humidity,HourlyPrecipIn,Conditions,Clouds,dailyrainin,SolarRadiationWatts/m^2,SoftwareType,DateUTC
2013-01-15 00:00:00,8.1,5.5,30.51,South,171,0.0,0.0,89,0.00,,,0.00,0,Wunderground v.1.15,2013-01-15 06:00:00,
2013-01-15 00:01:00,8.0,5.4,30.51,South,171,0.0,0.0,89,0.00,,,0.00,0,Wunderground v.1.15,2013-01-15 06:01:00,
2013-01-15 00:02:00,8.0,5.4,30.51,South,171,0.0,0.0,89,0.00,,,0.00,0,Wunderground v.1.15,2013-01-15 06:02:00,
2013-01-15 00:05:00,7.9,5.3,30.51,South,171,0.0,0.0,89,0.00,,,0.00,0,Wunderground v.1.15,2013-01-15 06:05:00,
2013-01-15 00:06:00,7.9,5.1,30.51,South,171,0.0,0.0,88,0.00,,,0.00,0,Wunderground v.1.15,2013-01-15 06:06:00,
2013-01-15 00:07:00,7.8,5.0,30.51,South,171,0.0,0.0,88,0.00,,,0.00,0,Wunderground v.1.15,2013-01-15 06:07:00,
2013-01-15 00:12:00,7.8,5.2,30.51,South,171,0.0,0.0,89,0.00,,,0.00,0,Wunderground v.1.15,2013-01-15 06:12:00,
2013-01-15 00:13:00,7.8,5.2,30.51,South,171,0.0,0.0,89,0.00,,,0.00,0,Wunderground v.1.15,2013-01-15 06:13:00,
2013-01-15 00:14:00,7.8,5.2,30.51,South,171,0.0,0.0,89,0.00,,,0.00,0,Wunderground v.1.15,2013-01-15 06:14:00,
2013-01-15 00:19:00,7.6,4.8,30.51,South,171,0.0,0.0,88,0.00,,,0.00,0,Wunderground v.1.15,2013-01-15 06:19:00,
2013-01-15 00:21:00,7.7,5.1,30.51,South,171,0.0,0.0,89,0.00,,,0.00,0,Wunderground v.1.15,2013-01-15 06:21:00,
2013-01-15 00:22:00,7.7,5.1,30.51,South,171,0.0,0.0,89,0.00,,,0.00,0,Wunderground v.1.15,2013-01-15 06:22:00,
2013-01-15 00:27:00,7.7,5.1,30.51,South,171,0.0,0.0,89,0.00,,,0.00,0,Wunderground v.1.15,2013-01-15 06:27:00,
2013-01-15 00:28:00,7.7,5.1,30.51,South,171,0.0,0.0,89,0.00,,,0.00,0,Wunderground v.1.15,2013-01-15 06:28:00,
2013-01-15 00:30:00,7.6,5.0,30.51,South,171,0.0,0.0,89,0.00,,,0.00,0,Wunderground v.1.15,2013-01-15 06:30:00,
2013-01-15 00:32:00,7.6,4.8,30.51,South,171,0.0,0.0,88,0.00,,,0.00,0,Wunderground v.1.15,2013-01-15 06:32:00,
2013-01-15 00:33:00,7.6,5.0,30.51,South,171,0.0,0.0,89,0.00,,,0.00,0,Wunderground v.1.15,2013-01-15 06:33:00,
2013-01-15 00:37:00,7.6,5.0,30.51,South,171,0.0,0.0,89,0.00,,,0.00,0,Wunderground v.1.15,2013-01-15 06:37:00,
2013-01-15 00:39:00,7.6,5.0,30.51,South,171,0.0,0.0,89,0.00,,,0.00,0,Wunderground v.1.15,2013-01-15 06:39:00,
2013-01-15 00:43:00,7.4,4.6,30.51,South,171,0.0,0.0,88,0.00,,,0.00,0,Wunderground v.1.15,2013-01-15 06:43:00,
2013-01-15 00:45:00,7.4,4.8,30.51,South,171,0.0,0.0,89,0.00,,,0.00,0,Wunderground v.1.15,2013-01-15 06:45:00,
2013-01-15 00:48:00,7.4,4.8,30.51,South,171,0.0,0.0,89,0.00,,,0.00,0,Wunderground v.1.15,2013-01-15 06:48:00,
2013-01-15 00:51:00,7.5,4.9,30.51,South,171,0.0,0.0,89,0.00,,,0.00,0,Wunderground v.1.15,2013-01-15 06:51:00,
2013-01-15 00:52:00,7.4,4.8,30.51,South,171,0.0,0.0,89,0.00,,,0.00,0,Wunderground v.1.15,2013-01-15 06:52:00,
2013-01-15 00:56:00,7.4,4.8,30.51,South,171,0.0,0.0,89,0.00,,,0.00,0,Wunderground v.1.15,2013-01-15 06:56:00,
2013-01-15 00:58:00,7.4,4.8,30.51,South,171,0.0,0.0,89,0.00,,,0.00,0,Wunderground v.1.15,2013-01-15 06:58:00,
2013-01-15 01:00:00,7.4,4.8,30.51,South,171,0.0,0.0,89,0.00,,,0.00,0,Wunderground v.1.15,2013-01-15 07:00:00,
2013-01-15 01:04:00,7.4,4.8,30.51,South,171,0.0,0.0,89,0.00,,,0.00,0,Wunderground v.1.15,2013-01-15 07:04:00,
2013-01-15 01:05:00,7.3,4.7,30.51,South,171,0.0,0.0,89,0.00,,,0.00,0,Wunderground v.1.15,2013-01-15 07:05:00,
2013-01-15 01:08:00,7.2,4.4,30.51,South,171,0.0,0.0,88,0.00,,,0.00,0,Wunderground v.1.15,2013-01-15 07:08:00,
2013-01-15 01:10:00,7.2,4.4,30.51,South,171,0.0,0.0,88,0.00,,,0.00,0,Wunderground v.1.15,2013-01-15 07:10:00,
2013-01-15 01:13:00,6.9,4.1,30.50,South,171,0.0,0.0,88,0.00,,,0.00,0,Wunderground v.1.15,2013-01-15 07:13:00,
2013-01-15 01:14:00,7.0,4.2,30.50,South,171,0.0,0.0,88,0.00,,,0.00,0,Wunderground v.1.15,2013-01-15 07:14:00,
2013-01-15 01:15:00,6.9,4.1,30.50,South,171,0.0,0.0,88,0.00,,,0.00,0,Wunderground v.1.15,2013-01-15 07:15:00,
2013-01-15 01:20:00,6.8,4.0,30.51,South,171,0.0,0.0,88,0.00,,,0.00,0,Wunderground v.1.15,2013-01-15 07:20:00,
2013-01-15 01:21:00,6.8,4.0,30.50,South,171,0.0,0.0,88,0.00,,,0.00,0,Wunderground v.1.15,2013-01-15 07:21:00,
2013-01-15 01:23:00,6.7,3.9,30.50,South,171,0.0,0.0,88,0.00,,,0.00,0,Wunderground v.1.15,2013-01-15 07:23:00,
2013-01-15 01:28:00,6.6,3.8,30.50,South,171,0.0,0.0,88,0.00,,,0.00,0,Wunderground v.1.15,2013-01-15 07:28:00,
2013-01-15 01:31:00,6.6,3.8,30.50,South,171,0.0,0.0,88,0.00,,,0.00,0,Wunderground v.1.15,2013-01-15 07:31:00,
2013-01-15 01:33:00,6.6,3.8,30.50,South,171,0.0,0.0,88,0.00,,,0.00,0,Wunderground v.1.15,2013-01-15 07:33:00,
2013-01-15 01:37:00,6.6,3.8,30.50,South,171,0.0,0.0,88,0.00,,,0.00,0,Wunderground v.1.15,2013-01-15 07:37:00,
2013-01-15 01:40:00,6.5,3.7,30.50,South,171,0.0,0.0,88,0.00,,,0.00,0,Wunderground v.1.15,2013-01-15 07:40:00,
2013-01-15 01:42:00,6.4,3.6,30.50,South,171,0.0,0.0,88,0.00,,,0.00,0,Wunderground v.1.15,2013-01-15 07:42:00,
2013-01-15 01:43:00,6.4,3.6,30.50,South,171,0.0,0.0,88,0.00,,,0.00,0,Wunderground v.1.15,2013-01-15 07:43:00,
2013-01-15 01:44:00,6.4,3.6,30.50,South,171,0.0,0.0,88,0.00,,,0.00,0,Wunderground v.1.15,2013-01-15 07:44:00,
2013-01-15 01:48:00,6.4,3.6,30.50,South,171,0.0,0.0,88,0.00,,,0.00,0,Wunderground v.1.15,2013-01-15 07:48:00,
2013-01-15 01:52:00,6.2,3.4,30.50,South,171,0.0,0.0,88,0.00,,,0.00,0,Wunderground v.1.15,2013-01-15 07:52:00,
2013-01-15 01:54:00,6.3,3.5,30.50,South,171,0.0,0.0,88,0.00,,,0.00,0,Wunderground v.1.15,2013-01-15 07:54:00,
2013-01-15 01:58:00,6.3,3.5,30.50,South,171,0.0,0.0,88,0.00,,,0.00,0,Wunderground v.1.15,2013-01-15 07:58:00,
2013-01-15 01:59:00,6.3,3.5,30.50,South,171,0.0,0.0,88,0.00,,,0.00,0,Wunderground v.1.15,2013-01-15 07:59:00,
2013-01-15 02:01:00,6.3,3.5,30.50,South,171,0.0,0.0,88,0.00,,,0.00,0,Wunderground v.1.15,2013-01-15 08:01:00,
2013-01-15 02:03:00,6.2,3.4,30.50,South,171,0.0,0.0,88,0.00,,,0.00,0,Wunderground v.1.15,2013-01-15 08:03:00,
2013-01-15 02:04:00,6.3,3.5,30.51,South,171,0.0,0.0,88,0.00,,,0.00,0,Wunderground v.1.15,2013-01-15 08:04:00,
2013-01-15 02:07:00,6.2,3.4,30.50,South,171,0.0,0.0,88,0.00,,,0.00,0,Wunderground v.1.15,2013-01-15 08:07:00,
2013-01-15 02:08:00,6.3,3.5,30.50,South,171,0.0,0.0,88,0.00,,,0.00,0,Wunderground v.1.15,2013-01-15 08:08:00,
2013-01-15 02:09:00,6.3,3.5,30.51,South,171,0.0,0.0,88,0.00,,,0.00,0,Wunderground v.1.15,2013-01-15 08:09:00,
2013-01-15 02:12:00,6.3,3.5,30.51,South,171,0.0,0.0,88,0.00,,,0.00,0,Wunderground v.1.15,2013-01-15 08:12:00,
2013-01-15 02:13:00,6.3,3.5,30.51,South,171,0.0,0.0,88,0.00,,,0.00,0,Wunderground v.1.15,2013-01-15 08:13:00,
2013-01-15 02:14:00,6.3,3.5,30.51,South,171,0.0,0.0,88,0.00,,,0.00,0,Wunderground v.1.15,2013-01-15 08:14:00,
2013-01-15 02:17:00,6.3,3.5,30.51,South,171,0.0,0.0,88,0.00,,,0.00,0,Wunderground v.1.15,2013-01-15 08:17:00,
2013-01-15 02:19:00,6.2,3.4,30.51,South,171,0.0,1.0,88,0.00,,,0.00,0,Wunderground v.1.15,2013-01-15 08:19:00,
2013-01-15 02:22:00,6.1,3.3,30.51,South,171,0.0,0.0,88,0.00,,,0.00,0,Wunderground v.1.15,2013-01-15 08:22:00,
2013-01-15 02:24:00,6.0,3.2,30.51,South,171,0.0,0.0,88,0.00,,,0.00,0,Wunderground v.1.15,2013-01-15 08:24:00,
2013-01-15 02:27:00,6.0,3.2,30.51,South,171,0.0,0.0,88,0.00,,,0.00,0,Wunderground v.1.15,2013-01-15 08:27:00,
2013-01-15 02:29:00,5.9,3.1,30.51,South,171,0.0,1.0,88,0.00,,,0.00,0,Wunderground v.1.15,2013-01-15 08:29:00,
2013-01-15 02:30:00,5.9,3.1,30.51,South,171,0.0,0.0,88,0.00,,,0.00,0,Wunderground v.1.15,2013-01-15 08:30:00,
2013-01-15 02:33:00,5.8,3.0,30.51,South,171,0.0,1.0,88,0.00,,,0.00,0,Wunderground v.1.15,2013-01-15 08:33:00,
2013-01-15 02:34:00,5.8,3.0,30.51,South,171,0.0,1.0,88,0.00,,,0.00,0,Wunderground v.1.15,2013-01-15 08:34:00,
2013-01-15 02:35:00,5.8,3.0,30.51,South,171,1.0,1.0,88,0.00,,,0.00,0,Wunderground v.1.15,2013-01-15 08:35:00,
2013-01-15 02:39:00,5.8,3.0,30.51,South,171,0.0,1.0,88,0.00,,,0.00,0,Wunderground v.1.15,2013-01-15 08:39:00,
2013-01-15 02:40:00,5.8,3.0,30.51,South,171,0.0,0.0,88,0.00,,,0.00,0,Wunderground v.1.15,2013-01-15 08:40:00,
2013-01-15 02:44:00,5.8,3.0,30.51,South,171,1.0,1.0,88,0.00,,,0.00,0,Wunderground v.1.15,2013-01-15 08:44:00,
2013-01-15 02:45:00,5.9,3.1,30.50,South,171,0.0,1.0,88,0.00,,,0.00,0,Wunderground v.1.15,2013-01-15 08:45:00,
2013-01-15 02:49:00,5.9,3.1,30.50,South,171,2.0,2.0,88,0.00,,,0.00,0,Wunderground v.1.15,2013-01-15 08:49:00,
2013-01-15 02:50:00,5.9,3.1,30.50,South,171,2.0,2.0,88,0.00,,,0.00,0,Wunderground v.1.15,2013-01-15 08:50:00,
2013-01-15 02:54:00,6.0,3.2,30.50,South,171,0.0,2.0,88,0.00,,,0.00,0,Wunderground v.1.15,2013-01-15 08:54:00,
2013-01-15 02:56:00,6.1,3.3,30.50,South,171,0.0,2.0,88,0.00,,,0.00,0,Wunderground v.1.15,2013-01-15 08:56:00,
2013-01-15 02:59:00,6.2,3.4,30.50,South,171,0.0,2.0,88,0.00,,,0.00,0,Wunderground v.1.15,2013-01-15 08:59:00,
2013-01-15 03:00:00,6.2,3.4,30.50,South,171,0.0,1.0,88,0.00,,,0.00,0,Wunderground v.1.15,2013-01-15 09:00:00,
2013-01-15 03:01:00,6.2,3.4,30.50,South,171,0.0,1.0,88,0.00,,,0.00,0,Wunderground v.1.15,2013-01-15 09:01:00,
2013-01-15 03:02:00,6.2,3.4,30.50,South,171,0.0,1.0,88,0.00,,,0.00,0,Wunderground v.1.15,2013-01-15 09:02:00,
2013-01-15 03:04:00,6.2,3.4,30.50,South,171,0.0,1.0,88,0.00,,,0.00,0,Wunderground v.1.15,2013-01-15 09:04:00,
2013-01-15 03:05:00,6.2,3.4,30.50,South,171,0.0,1.0,88,0.00,,,0.00,0,Wunderground v.1.15,2013-01-15 09:05:00,
2013-01-15 03:07:00,6.1,3.3,30.50,South,171,1.0,1.0,88,0.00,,,0.00,0,Wunderground v.1.15,2013-01-15 09:07:00,
2013-01-15 03:09:00,6.1,3.3,30.50,South,171,0.0,1.0,88,0.00,,,0.00,0,Wunderground v.1.15,2013-01-15 09:09:00,
2013-01-15 03:10:00,6.0,3.2,30.50,South,171,0.0,1.0,88,0.00,,,0.00,0,Wunderground v.1.15,2013-01-15 09:10:00,
2013-01-15 03:12:00,6.0,3.2,30.50,South,171,0.0,1.0,88,0.00,,,0.00,0,Wunderground v.1.15,2013-01-15 09:12:00,
2013-01-15 03:14:00,6.0,3.2,30.50,South,171,0.0,1.0,88,0.00,,,0.00,0,Wunderground v.1.15,2013-01-15 09:14:00,
2013-01-15 03:16:00,6.0,3.2,30.50,South,171,0.0,1.0,88,0.00,,,0.00,0,Wunderground v.1.15,2013-01-15 09:16:00,
2013-01-15 03:17:00,5.9,3.1,30.50,South,171,0.0,1.0,88,0.00,,,0.00,0,Wunderground v.1.15,2013-01-15 09:17:00,
2013-01-15 03:18:00,5.9,3.1,30.50,South,171,0.0,1.0,88,0.00,,,0.00,0,Wunderground v.1.15,2013-01-15 09:18:00,
2013-01-15 03:20:00,5.9,3.1,30.50,South,171,0.0,0.0,88,0.00,,,0.00,0,Wunderground v.1.15,2013-01-15 09:20:00,
2013-01-15 03:21:00,5.8,3.0,30.50,South,171,0.0,1.0,88,0.00,,,0.00,0,Wunderground v.1.15,2013-01-15 09:21:00,
2013-01-15 03:23:00,5.7,2.9,30.50,South,171,0.0,1.0,88,0.00,,,0.00,0,Wunderground v.1.15,2013-01-15 09:23:00,
2013-01-15 03:25:00,5.7,2.9,30.49,South,171,0.0,1.0,88,0.00,,,0.00,0,Wunderground v.1.15,2013-01-15 09:25:00,
2013-01-15 03:27:00,5.6,2.8,30.49,South,171,0.0,1.0,88,0.00,,,0.00,0,Wunderground v.1.15,2013-01-15 09:27:00,
2013-01-15 03:28:00,5.6,2.8,30.49,South,171,1.0,2.0,88,0.00,,,0.00,0,Wunderground v.1.15,2013-01-15 09:28:00,
2013-01-15 03:30:00,5.6,2.8,30.49,South,171,0.0,1.0,88,0.00,,,0.00,0,Wunderground v.1.15,2013-01-15 09:30:00,
2013-01-15 03:32:00,5.6,2.8,30.49,South,171,0.0,1.0,88,0.00,,,0.00,0,Wunderground v.1.15,2013-01-15 09:32:00,
2013-01-15 03:33:00,5.6,2.8,30.49,South,171,0.0,1.0,88,0.00,,,0.00,0,Wunderground v.1.15,2013-01-15 09:33:00,
2013-01-15 03:35:00,5.6,2.8,30.49,South,171,0.0,1.0,88,0.00,,,0.00,0,Wunderground v.1.15,2013-01-15 09:35:00,
2013-01-15 03:37:00,5.6,2.8,30.49,South,171,0.0,1.0,88,0.00,,,0.00,0,Wunderground v.1.15,2013-01-15 09:37:00,
2013-01-15 03:38:00,5.7,2.9,30.49,South,171,0.0,1.0,88,0.00,,,0.00,0,Wunderground v.1.15,2013-01-15 09:38:00,
2013-01-15 03:41:00,5.7,2.9,30.49,South,171,0.0,0.0,88,0.00,,,0.00,0,Wunderground v.1.15,2013-01-15 09:41:00,
2013-01-15 03:42:00,5.8,3.0,30.49,South,171,0.0,0.0,88,0.00,,,0.00,0,Wunderground v.1.15,2013-01-15 09:42:00,
2013-01-15 03:43:00,5.8,3.0,30.49,South,171,0.0,0.0,88,0.00,,,0.00,0,Wunderground v.1.15,2013-01-15 09:43:00,
2013-01-15 03:44:00,5.8,3.0,30.49,South,171,0.0,1.0,88,0.00,,,0.00,0,Wunderground v.1.15,2013-01-15 09:44:00,
2013-01-15 03:46:00,5.8,3.0,30.49,South,171,0.0,1.0,88,0.00,,,0.00,0,Wunderground v.1.15,2013-01-15 09:46:00,
2013-01-15 03:47:00,5.7,2.9,30.49,South,171,0.0,1.0,88,0.00,,,0.00,0,Wunderground v.1.15,2013-01-15 09:47:00,
2013-01-15 03:48:00,5.7,2.9,30.49,South,171,0.0,1.0,88,0.00,,,0.00,0,Wunderground v.1.15,2013-01-15 09:48:00,
2013-01-15 03:49:00,5.7,2.9,30.49,South,171,0.0,1.0,88,0.00,,,0.00,0,Wunderground v.1.15,2013-01-15 09:49:00,
2013-01-15 03:51:00,5.7,2.9,30.49,South,171,0.0,0.0,88,0.00,,,0.00,0,Wunderground v.1.15,2013-01-15 09:51:00,
2013-01-15 03:52:00,5.7,2.9,30.49,South,171,0.0,1.0,88,0.00,,,0.00,0,Wunderground v.1.15,2013-01-15 09:52:00,
2013-01-15 03:55:00,5.6,2.8,30.49,South,171,0.0,1.0,88,0.00,,,0.00,0,Wunderground v.1.15,2013-01-15 09:55:00,
2013-01-15 03:56:00,5.6,2.8,30.49,South,171,0.0,1.0,88,0.00,,,0.00,0,Wunderground v.1.15,2013-01-15 09:56:00,
2013-01-15 03:57:00,5.6,2.8,30.49,South,171,0.0,1.0,88,0.00,,,0.00,0,Wunderground v.1.15,2013-01-15 09:57:00,
2013-01-15 04:00:00,5.5,2.7,30.49,South,171,0.0,0.0,88,0.00,,,0.00,0,Wunderground v.1.15,2013-01-15 10:00:00,
2013-01-15 04:01:00,5.5,2.7,30.49,South,171,0.0,0.0,88,0.00,,,0.00,0,Wunderground v.1.15,2013-01-15 10:01:00,
2013-01-15 04:03:00,5.4,2.6,30.49,South,171,0.0,0.0,88,0.00,,,0.00,0,Wunderground v.1.15,2013-01-15 10:03:00,
2013-01-15 04:05:00,5.4,2.6,30.49,South,171,1.0,1.0,88,0.00,,,0.00,0,Wunderground v.1.15,2013-01-15 10:05:00,
2013-01-15 04:06:00,5.4,2.6,30.49,South,171,0.0,1.0,88,0.00,,,0.00,0,Wunderground v.1.15,2013-01-15 10:06:00,
2013-01-15 04:07:00,5.4,2.6,30.49,South,171,0.0,1.0,88,0.00,,,0.00,0,Wunderground v.1.15,2013-01-15 10:07:00,
2013-01-15 04:08:00,5.4,2.6,30.48,South,171,0.0,1.0,88,0.00,,,0.00,0,Wunderground v.1.15,2013-01-15 10:08:00,
2013-01-15 04:11:00,5.3,2.5,30.49,South,171,0.0,0.0,88,0.00,,,0.00,0,Wunderground v.1.15,2013-01-15 10:11:00,
2013-01-15 04:13:00,5.3,2.5,30.49,South,171,0.0,0.0,88,0.00,,,0.00,0,Wunderground v.1.15,2013-01-15 10:13:00,
2013-01-15 04:14:00,5.4,2.6,30.49,South,171,0.0,0.0,88,0.00,,,0.00,0,Wunderground v.1.15,2013-01-15 10:14:00,
2013-01-15 04:16:00,5.5,2.7,30.48,South,171,1.0,1.0,88,0.00,,,0.00,0,Wunderground v.1.15,2013-01-15 10:16:00,
2013-01-15 04:18:00,5.5,2.7,30.48,South,171,0.0,1.0,88,0.00,,,0.00,0,Wunderground v.1.15,2013-01-15 10:18:00,
2013-01-15 04:19:00,5.5,2.7,30.48,South,171,0.0,1.0,88,0.00,,,0.00,0,Wunderground v.1.15,2013-01-15 10:19:00,
2013-01-15 04:21:00,5.5,2.7,30.48,South,171,0.0,1.0,88,0.00,,,0.00,0,Wunderground v.1.15,2013-01-15 10:21:00,
2013-01-15 04:22:00,5.5,2.7,30.48,South,171,0.0,1.0,88,0.00,,,0.00,0,Wunderground v.1.15,2013-01-15 10:22:00,
2013-01-15 04:23:00,5.5,2.7,30.48,South,171,1.0,1.0,88,0.00,,,0.00,0,Wunderground v.1.15,2013-01-15 10:23:00,
2013-01-15 04:24:00,5.6,2.8,30.48,South,171,0.0,1.0,88,0.00,,,0.00,0,Wunderground v.1.15,2013-01-15 10:24:00,
2013-01-15 04:26:00,5.7,2.9,30.48,South,171,0.0,1.0,88,0.00,,,0.00,0,Wunderground v.1.15,2013-01-15 10:26:00,
2013-01-15 04:27:00,5.7,2.9,30.48,South,171,1.0,1.0,88,0.00,,,0.00,0,Wunderground v.1.15,2013-01-15 10:27:00,
2013-01-15 04:29:00,5.8,3.0,30.48,South,171,0.0,1.0,88,0.00,,,0.00,0,Wunderground v.1.15,2013-01-15 10:29:00,
2013-01-15 04:32:00,5.9,3.1,30.48,South,171,0.0,1.0,88,0.00,,,0.00,0,Wunderground v.1.15,2013-01-15 10:32:00,
2013-01-15 04:34:00,5.9,3.1,30.48,South,171,0.0,1.0,88,0.00,,,0.00,0,Wunderground v.1.15,2013-01-15 10:34:00,
2013-01-15 04:37:00,5.8,3.0,30.48,South,171,0.0,1.0,88,0.00,,,0.00,0,Wunderground v.1.15,2013-01-15 10:37:00,
2013-01-15 04:39:00,5.8,3.0,30.48,South,171,0.0,1.0,88,0.00,,,0.00,0,Wunderground v.1.15,2013-01-15 10:39:00,
2013-01-15 04:40:00,5.8,3.0,30.48,South,171,0.0,0.0,88,0.00,,,0.00,0,Wunderground v.1.15,2013-01-15 10:40:00,
2013-01-15 04:42:00,5.9,3.1,30.48,South,171,1.0,1.0,88,0.00,,,0.00,0,Wunderground v.1.15,2013-01-15 10:42:00,
2013-01-15 04:44:00,5.9,3.1,30.47,South,171,0.0,1.0,88,0.00,,,0.00,0,Wunderground v.1.15,2013-01-15 10:44:00,
2013-01-15 04:45:00,5.9,3.1,30.47,South,171,0.0,1.0,88,0.00,,,0.00,0,Wunderground v.1.15,2013-01-15 10:45:00,
2013-01-15 04:47:00,5.9,3.1,30.47,South,171,0.0,1.0,88,0.00,,,0.00,0,Wunderground v.1.15,2013-01-15 10:47:00,
2013-01-15 04:48:00,5.9,3.1,30.47,South,171,0.0,1.0,88,0.00,,,0.00,0,Wunderground v.1.15,2013-01-15 10:48:00,
2013-01-15 04:49:00,5.9,3.1,30.47,South,171,0.0,1.0,88,0.00,,,0.00,0,Wunderground v.1.15,2013-01-15 10:49:00,
2013-01-15 04:51:00,5.9,3.1,30.47,South,171,0.0,0.0,88,0.00,,,0.00,0,Wunderground v.1.15,2013-01-15 10:51:00,
2013-01-15 04:52:00,5.9,3.1,30.47,South,171,0.0,0.0,88,0.00,,,0.00,0,Wunderground v.1.15,2013-01-15 10:52:00,
2013-01-15 04:53:00,5.9,3.1,30.47,South,171,0.0,0.0,88,0.00,,,0.00,0,Wunderground v.1.15,2013-01-15 10:53:00,
2013-01-15 04:54:00,5.9,3.1,30.47,South,171,0.0,0.0,88,0.00,,,0.00,0,Wunderground v.1.15,2013-01-15 10:54:00,
2013-01-15 04:56:00,5.9,3.1,30.47,South,171,0.0,1.0,88,0.00,,,0.00,0,Wunderground v.1.15,2013-01-15 10:56:00,
2013-01-15 04:58:00,5.9,3.1,30.47,South,171,0.0,1.0,88,0.00,,,0.00,0,Wunderground v.1.15,2013-01-15 10:58:00,
2013-01-15 05:00:00,5.9,3.1,30.47,South,171,0.0,0.0,88,0.00,,,0.00,0,Wunderground v.1.15,2013-01-15 11:00:00,
2013-01-15 05:02:00,5.8,3.0,30.47,South,171,1.0,1.0,88,0.00,,,0.00,0,Wunderground v.1.15,2013-01-15 11:02:00,
2013-01-15 05:03:00,5.8,3.0,30.47,South,171,1.0,1.0,88,0.00,,,0.00,0,Wunderground v.1.15,2013-01-15 11:03:00,
2013-01-15 05:05:00,5.7,2.9,30.47,South,171,0.0,1.0,88,0.00,,,0.00,0,Wunderground v.1.15,2013-01-15 11:05:00,
2013-01-15 05:07:00,5.7,2.9,30.46,South,171,0.0,1.0,88,0.00,,,0.00,0,Wunderground v.1.15,2013-01-15 11:07:00,
2013-01-15 05:09:00,5.7,2.9,30.47,South,171,1.0,1.0,88,0.00,,,0.00,0,Wunderground v.1.15,2013-01-15 11:09:00,
2013-01-15 05:10:00,5.7,2.9,30.47,South,171,1.0,1.0,88,0.00,,,0.00,0,Wunderground v.1.15,2013-01-15 11:10:00,
2013-01-15 05:12:00,5.7,2.9,30.47,South,171,0.0,1.0,88,0.00,,,0.00,0,Wunderground v.1.15,2013-01-15 11:12:00,
2013-01-15 05:14:00,5.7,2.9,30.47,South,171,0.0,1.0,88,0.00,,,0.00,0,Wunderground v.1.15,2013-01-15 11:14:00,
2013-01-15 05:15:00,5.7,2.9,30.47,South,171,0.0,1.0,88,0.00,,,0.00,0,Wunderground v.1.15,2013-01-15 11:15:00,
2013-01-15 05:18:00,5.6,2.8,30.47,South,171,0.0,1.0,88,0.00,,,0.00,0,Wunderground v.1.15,2013-01-15 11:18:00,
2013-01-15 05:19:00,5.6,2.8,30.46,South,171,0.0,1.0,88,0.00,,,0.00,0,Wunderground v.1.15,2013-01-15 11:19:00,
2013-01-15 05:20:00,5.6,2.8,30.46,South,171,1.0,2.0,88,0.00,,,0.00,0,Wunderground v.1.15,2013-01-15 11:20:00,
2013-01-15 05:23:00,5.6,2.8,30.46,South,171,1.0,2.0,88,0.00,,,0.00,0,Wunderground v.1.15,2013-01-15 11:23:00,
2013-01-15 05:24:00,5.6,2.8,30.46,South,171,0.0,2.0,88,0.00,,,0.00,0,Wunderground v.1.15,2013-01-15 11:24:00,
2013-01-15 05:25:00,5.6,2.8,30.46,South,171,0.0,2.0,88,0.00,,,0.00,0,Wunderground v.1.15,2013-01-15 11:25:00,
2013-01-15 05:28:00,5.7,2.9,30.46,South,171,1.0,2.0,88,0.00,,,0.00,0,Wunderground v.1.15,2013-01-15 11:28:00,
2013-01-15 05:29:00,5.7,2.9,30.46,South,171,0.0,2.0,88,0.00,,,0.00,0,Wunderground v.1.15,2013-01-15 11:29:00,
2013-01-15 05:30:00,5.8,3.0,30.46,South,171,0.0,0.0,88,0.00,,,0.00,0,Wunderground v.1.15,2013-01-15 11:30:00,
2013-01-15 05:31:00,5.8,3.0,30.46,South,171,0.0,0.0,88,0.00,,,0.00,0,Wunderground v.1.15,2013-01-15 11:31:00,
2013-01-15 05:34:00,5.8,3.0,30.46,South,171,0.0,0.0,88,0.00,,,0.00,0,Wunderground v.1.15,2013-01-15 11:34:00,
2013-01-15 05:35:00,5.8,3.0,30.46,South,171,0.0,0.0,88,0.00,,,0.00,0,Wunderground v.1.15,2013-01-15 11:35:00,
2013-01-15 05:36:00,5.8,3.0,30.46,South,171,0.0,0.0,88,0.00,,,0.00,0,Wunderground v.1.15,2013-01-15 11:36:00,
2013-01-15 05:39:00,5.8,3.0,30.46,South,171,0.0,0.0,88,0.00,,,0.00,0,Wunderground v.1.15,2013-01-15 11:39:00,
2013-01-15 05:40:00,5.7,2.9,30.46,South,171,0.0,0.0,88,0.00,,,0.00,0,Wunderground v.1.15,2013-01-15 11:40:00,
2013-01-15 05:41:00,5.7,2.9,30.46,South,171,0.0,0.0,88,0.00,,,0.00,0,Wunderground v.1.15,2013-01-15 11:41:00,
2013-01-15 05:42:00,5.6,2.8,30.46,South,171,0.0,0.0,88,0.00,,,0.00,0,Wunderground v.1.15,2013-01-15 11:42:00,
2013-01-15 05:44:00,5.5,2.7,30.46,South,171,0.0,0.0,88,0.00,,,0.00,0,Wunderground v.1.15,2013-01-15 11:44:00,
2013-01-15 05:46:00,5.4,2.6,30.46,South,171,0.0,0.0,88,0.00,,,0.00,0,Wunderground v.1.15,2013-01-15 11:46:00,
2013-01-15 05:47:00,5.3,2.5,30.46,South,171,0.0,0.0,88,0.00,,,0.00,0,Wunderground v.1.15,2013-01-15 11:47:00,
2013-01-15 05:49:00,5.2,2.2,30.46,South,171,0.0,0.0,87,0.00,,,0.00,0,Wunderground v.1.15,2013-01-15 11:49:00,
2013-01-15 05:51:00,5.2,2.2,30.46,South,171,0.0,0.0,87,0.00,,,0.00,0,Wunderground v.1.15,2013-01-15 11:51:00,
2013-01-15 05:52:00,5.2,2.2,30.46,South,171,0.0,0.0,87,0.00,,,0.00,0,Wunderground v.1.15,2013-01-15 11:52:00,
2013-01-15 05:55:00,5.2,2.4,30.46,South,171,0.0,0.0,88,0.00,,,0.00,0,Wunderground v.1.15,2013-01-15 11:55:00,
2013-01-15 05:56:00,5.1,2.3,30.46,South,171,0.0,0.0,88,0.00,,,0.00,0,Wunderground v.1.15,2013-01-15 11:56:00,
2013-01-15 05:57:00,5.1,2.1,30.46,South,171,0.0,0.0,87,0.00,,,0.00,0,Wunderground v.1.15,2013-01-15 11:57:00,
2013-01-15 05:58:00,5.1,2.1,30.46,South,171,0.0,0.0,87,0.00,,,0.00,0,Wunderground v.1.15,2013-01-15 11:58:00,
2013-01-15 06:00:00,5.1,2.3,30.46,South,171,0.0,0.0,88,0.00,,,0.00,0,Wunderground v.1.15,2013-01-15 12:00:00,
2013-01-15 06:02:00,5.1,2.3,30.46,South,171,0.0,0.0,88,0.00,,,0.00,0,Wunderground v.1.15,2013-01-15 12:02:00,
2013-01-15 06:03:00,5.2,2.4,30.46,South,171,0.0,0.0,88,0.00,,,0.00,0,Wunderground v.1.15,2013-01-15 12:03:00,
2013-01-15 06:06:00,5.2,2.4,30.46,South,171,0.0,0.0,88,0.00,,,0.00,0,Wunderground v.1.15,2013-01-15 12:06:00,
2013-01-15 06:07:00,5.1,2.3,30.46,South,171,0.0,0.0,88,0.00,,,0.00,0,Wunderground v.1.15,2013-01-15 12:07:00,
2013-01-15 06:08:00,5.1,2.1,30.46,South,171,0.0,0.0,87,0.00,,,0.00,0,Wunderground v.1.15,2013-01-15 12:08:00,
2013-01-15 06:11:00,5.0,2.2,30.46,South,171,0.0,0.0,88,0.00,,,0.00,0,Wunderground v.1.15,2013-01-15 12:11:00,
2013-01-15 06:12:00,5.1,2.3,30.46,South,171,0.0,0.0,88,0.00,,,0.00,0,Wunderground v.1.15,2013-01-15 12:12:00,
2013-01-15 06:14:00,5.1,2.3,30.46,South,171,0.0,0.0,88,0.00,,,0.00,0,Wunderground v.1.15,2013-01-15 12:14:00,
2013-01-15 06:16:00,5.1,2.3,30.46,South,171,0.0,0.0,88,0.00,,,0.00,0,Wunderground v.1.15,2013-01-15 12:16:00,
2013-01-15 06:17:00,5.1,2.3,30.46,South,171,0.0,0.0,88,0.00,,,0.00,0,Wunderground v.1.15,2013-01-15 12:17:00,
2013-01-15 06:19:00,5.1,2.3,30.46,South,171,0.0,0.0,88,0.00,,,0.00,0,Wunderground v.1.15,2013-01-15 12:19:00,
2013-01-15 06:21:00,5.0,2.2,30.46,South,171,0.0,1.0,88,0.00,,,0.00,0,Wunderground v.1.15,2013-01-15 12:21:00,
2013-01-15 06:22:00,5.0,2.2,30.46,South,171,0.0,1.0,88,0.00,,,0.00,0,Wunderground v.1.15,2013-01-15 12:22:00,
2013-01-15 06:24:00,4.9,2.1,30.46,South,171,0.0,1.0,88,0.00,,,0.00,0,Wunderground v.1.15,2013-01-15 12:24:00,
2013-01-15 06:27:00,4.9,2.1,30.46,South,171,0.0,1.0,88,0.00,,,0.00,0,Wunderground v.1.15,2013-01-15 12:27:00,
2013-01-15 06:30:00,4.9,2.1,30.46,South,171,0.0,0.0,88,0.00,,,0.00,0,Wunderground v.1.15,2013-01-15 12:30:00,
2013-01-15 06:32:00,4.9,2.1,30.46,South,171,0.0,0.0,88,0.00,,,0.00,0,Wunderground v.1.15,2013-01-15 12:32:00,
2013-01-15 06:33:00,4.9,2.1,30.46,South,171,0.0,0.0,88,0.00,,,0.00,0,Wunderground v.1.15,2013-01-15 12:33:00,
2013-01-15 06:35:00,4.9,2.1,30.46,South,171,0.0,0.0,88,0.00,,,0.00,0,Wunderground v.1.15,2013-01-15 12:35:00,
2013-01-15 06:36:00,4.9,2.1,30.46,South,171,0.0,0.0,88,0.00,,,0.00,0,Wunderground v.1.15,2013-01-15 12:36:00,
2013-01-15 06:38:00,4.9,2.1,30.46,South,171,0.0,0.0,88,0.00,,,0.00,0,Wunderground v.1.15,2013-01-15 12:38:00,
2013-01-15 06:40:00,4.9,2.1,30.46,South,171,0.0,0.0,88,0.00,,,0.00,0,Wunderground v.1.15,2013-01-15 12:40:00,
2013-01-15 06:41:00,4.9,2.1,30.46,South,171,0.0,0.0,88,0.00,,,0.00,0,Wunderground v.1.15,2013-01-15 12:41:00,
2013-01-15 06:43:00,5.0,2.2,30.46,South,171,0.0,0.0,88,0.00,,,0.00,0,Wunderground v.1.15,2013-01-15 12:43:00,
2013-01-15 06:45:00,4.9,2.1,30.46,South,171,0.0,1.0,88,0.00,,,0.00,0,Wunderground v.1.15,2013-01-15 12:45:00,
2013-01-15 06:47:00,4.9,2.1,30.46,South,171,0.0,1.0,88,0.00,,,0.00,0,Wunderground v.1.15,2013-01-15 12:47:00,
2013-01-15 06:48:00,4.9,2.1,30.46,South,171,0.0,1.0,88,0.00,,,0.00,0,Wunderground v.1.15,2013-01-15 12:48:00,
2013-01-15 06:51:00,4.9,2.1,30.46,South,171,0.0,0.0,88,0.00,,,0.00,0,Wunderground v.1.15,2013-01-15 12:51:00,
2013-01-15 06:52:00,4.8,2.0,30.46,South,171,0.0,0.0,88,0.00,,,0.00,0,Wunderground v.1.15,2013-01-15 12:52:00,
2013-01-15 06:53:00,4.8,2.0,30.46,South,171,0.0,0.0,88,0.00,,,0.00,0,Wunderground v.1.15,2013-01-15 12:53:00,
2013-01-15 06:54:00,4.8,2.0,30.46,South,171,0.0,0.0,88,0.00,,,0.00,0,Wunderground v.1.15,2013-01-15 12:54:00,
2013-01-15 06:56:00,4.8,2.0,30.46,South,171,0.0,0.0,88,0.00,,,0.00,0,Wunderground v.1.15,2013-01-15 12:56:00,
2013-01-15 06:57:00,4.7,1.9,30.46,South,171,0.0,0.0,88,0.00,,,0.00,0,Wunderground v.1.15,2013-01-15 12:57:00,
2013-01-15 06:58:00,4.7,1.9,30.46,South,171,0.0,0.0,88,0.00,,,0.00,0,Wunderground v.1.15,2013-01-15 12:58:00,
2013-01-15 06:59:00,4.7,1.9,30.46,South,171,0.0,0.0,88,0.00,,,0.00,0,Wunderground v.1.15,2013-01-15 12:59:00,
2013-01-15 07:01:00,4.6,1.6,30.46,South,171,0.0,0.0,87,0.00,,,0.00,0,Wunderground v.1.15,2013-01-15 13:01:00,
2013-01-15 07:02:00,4.6,1.6,30.46,South,171,0.0,0.0,87,0.00,,,0.00,0,Wunderground v.1.15,2013-01-15 13:02:00,
2013-01-15 07:04:00,4.6,1.6,30.46,South,171,0.0,0.0,87,0.00,,,0.00,0,Wunderground v.1.15,2013-01-15 13:04:00,
2013-01-15 07:06:00,4.6,1.6,30.46,South,171,0.0,0.0,87,0.00,,,0.00,0,Wunderground v.1.15,2013-01-15 13:06:00,
2013-01-15 07:08:00,4.6,1.6,30.46,South,171,0.0,0.0,87,0.00,,,0.00,0,Wunderground v.1.15,2013-01-15 13:08:00,
2013-01-15 07:09:00,4.6,1.6,30.46,South,171,0.0,0.0,87,0.00,,,0.00,0,Wunderground v.1.15,2013-01-15 13:09:00,
2013-01-15 07:10:00,4.5,1.5,30.46,South,171,0.0,0.0,87,0.00,,,0.00,0,Wunderground v.1.15,2013-01-15 13:10:00,
2013-01-15 07:11:00,4.5,1.5,30.46,South,171,0.0,0.0,87,0.00,,,0.00,0,Wunderground v.1.15,2013-01-15 13:11:00,
2013-01-15 07:13:00,4.5,1.5,30.46,South,171,0.0,0.0,87,0.00,,,0.00,0,Wunderground v.1.15,2013-01-15 13:13:00,
2013-01-15 07:14:00,4.5,1.5,30.46,South,171,0.0,0.0,87,0.00,,,0.00,0,Wunderground v.1.15,2013-01-15 13:14:00,
2013-01-15 07:15:00,4.5,1.5,30.46,South,171,0.0,0.0,87,0.00,,,0.00,0,Wunderground v.1.15,2013-01-15 13:15:00,
2013-01-15 07:17:00,4.5,1.5,30.46,South,171,0.0,0.0,87,0.00,,,0.00,0,Wunderground v.1.15,2013-01-15 13:17:00,
2013-01-15 07:18:00,4.5,1.5,30.46,South,171,0.0,0.0,87,0.00,,,0.00,0,Wunderground v.1.15,2013-01-15 13:18:00,
2013-01-15 07:19:00,4.5,1.7,30.46,South,171,0.0,0.0,88,0.00,,,0.00,0,Wunderground v.1.15,2013-01-15 13:19:00,
2013-01-15 07:20:00,4.5,1.7,30.46,South,171,0.0,0.0,88,0.00,,,0.00,0,Wunderground v.1.15,2013-01-15 13:20:00,
2013-01-15 07:22:00,4.5,1.7,30.46,South,171,0.0,1.0,88,0.00,,,0.00,0,Wunderground v.1.15,2013-01-15 13:22:00,
2013-01-15 07:23:00,4.5,1.7,30.46,South,171,0.0,1.0,88,0.00,,,0.00,0,Wunderground v.1.15,2013-01-15 13:23:00,
2013-01-15 07:25:00,4.6,1.8,30.46,South,171,1.0,2.0,88,0.00,,,0.00,0,Wunderground v.1.15,2013-01-15 13:25:00,
2013-01-15 07:27:00,4.6,1.8,30.46,South,171,0.0,2.0,88,0.00,,,0.00,0,Wunderground v.1.15,2013-01-15 13:27:00,
2013-01-15 07:28:00,4.6,1.8,30.45,South,171,0.0,2.0,88,0.00,,,0.00,0,Wunderground v.1.15,2013-01-15 13:28:00,
2013-01-15 07:30:00,4.6,1.8,30.46,South,171,0.0,0.0,88,0.00,,,0.00,0,Wunderground v.1.15,2013-01-15 13:30:00,
2013-01-15 07:31:00,4.6,1.8,30.46,South,171,0.0,0.0,88,0.00,,,0.00,0,Wunderground v.1.15,2013-01-15 13:31:00,
2013-01-15 07:32:00,4.6,1.8,30.46,South,171,0.0,1.0,88,0.00,,,0.00,0,Wunderground v.1.15,2013-01-15 13:32:00,
2013-01-15 07:34:00,4.6,1.6,30.46,South,171,0.0,1.0,87,0.00,,,0.00,5,Wunderground v.1.15,2013-01-15 13:34:00,
2013-01-15 07:35:00,4.6,1.8,30.46,South,171,0.0,1.0,88,0.00,,,0.00,5,Wunderground v.1.15,2013-01-15 13:35:00,
2013-01-15 07:36:00,4.6,1.8,30.46,South,171,0.0,1.0,88,0.00,,,0.00,5,Wunderground v.1.15,2013-01-15 13:36:00,
2013-01-15 07:37:00,4.7,1.9,30.46,South,171,0.0,1.0,88,0.00,,,0.00,5,Wunderground v.1.15,2013-01-15 13:37:00,
2013-01-15 07:39:00,4.6,1.8,30.46,South,171,0.0,1.0,88,0.00,,,0.00,7,Wunderground v.1.15,2013-01-15 13:39:00,
2013-01-15 07:41:00,4.6,1.6,30.46,South,171,0.0,0.0,87,0.00,,,0.00,7,Wunderground v.1.15,2013-01-15 13:41:00,
2013-01-15 07:42:00,4.6,1.6,30.46,South,171,0.0,0.0,87,0.00,,,0.00,9,Wunderground v.1.15,2013-01-15 13:42:00,
2013-01-15 07:44:00,4.6,1.6,30.46,South,171,0.0,0.0,87,0.00,,,0.00,11,Wunderground v.1.15,2013-01-15 13:44:00,
2013-01-15 07:46:00,4.6,1.8,30.46,South,171,0.0,0.0,88,0.00,,,0.00,11,Wunderground v.1.15,2013-01-15 13:46:00,
2013-01-15 07:47:00,4.7,1.9,30.46,South,171,0.0,1.0,88,0.00,,,0.00,12,Wunderground v.1.15,2013-01-15 13:47:00,
2013-01-15 07:50:00,4.8,2.0,30.46,South,171,0.0,1.0,88,0.00,,,0.00,14,Wunderground v.1.15,2013-01-15 13:50:00,
2013-01-15 07:51:00,4.8,2.0,30.46,South,171,0.0,1.0,88,0.00,,,0.00,14,Wunderground v.1.15,2013-01-15 13:51:00,
2013-01-15 07:52:00,4.9,2.1,30.46,South,171,0.0,1.0,88,0.00,,,0.00,14,Wunderground v.1.15,2013-01-15 13:52:00,
2013-01-15 07:55:00,4.9,2.1,30.46,South,171,0.0,1.0,88,0.00,,,0.00,18,Wunderground v.1.15,2013-01-15 13:55:00,
2013-01-15 07:56:00,4.9,2.1,30.46,South,171,0.0,1.0,88,0.00,,,0.00,19,Wunderground v.1.15,2013-01-15 13:56:00,
2013-01-15 07:57:00,4.9,2.1,30.46,South,171,0.0,1.0,88,0.00,,,0.00,19,Wunderground v.1.15,2013-01-15 13:57:00,
2013-01-15 08:00:00,4.9,2.1,30.46,South,171,0.0,0.0,88,0.00,,,0.00,23,Wunderground v.1.15,2013-01-15 14:00:00,
2013-01-15 08:01:00,4.9,2.1,30.46,South,171,0.0,1.0,88,0.00,,,0.00,25,Wunderground v.1.15,2013-01-15 14:01:00,
2013-01-15 08:02:00,4.9,2.1,30.46,South,171,0.0,1.0,88,0.00,,,0.00,25,Wunderground v.1.15,2013-01-15 14:02:00,
2013-01-15 08:03:00,5.0,2.2,30.46,South,171,0.0,1.0,88,0.00,,,0.00,26,Wunderground v.1.15,2013-01-15 14:03:00,
2013-01-15 08:06:00,5.0,2.2,30.46,South,171,0.0,1.0,88,0.00,,,0.00,30,Wunderground v.1.15,2013-01-15 14:06:00,
2013-01-15 08:08:00,5.1,2.3,30.46,South,171,0.0,1.0,88,0.00,,,0.00,33,Wunderground v.1.15,2013-01-15 14:08:00,
2013-01-15 08:11:00,5.2,2.4,30.46,South,171,0.0,0.0,88,0.00,,,0.00,39,Wunderground v.1.15,2013-01-15 14:11:00,
2013-01-15 08:12:00,5.3,2.5,30.45,South,171,0.0,1.0,88,0.00,,,0.00,40,Wunderground v.1.15,2013-01-15 14:12:00,
2013-01-15 08:13:00,5.3,2.5,30.46,South,171,0.0,1.0,88,0.00,,,0.00,42,Wunderground v.1.15,2013-01-15 14:13:00,
2013-01-15 08:16:00,5.4,2.6,30.46,South,171,0.0,1.0,88,0.00,,,0.00,47,Wunderground v.1.15,2013-01-15 14:16:00,
2013-01-15 08:17:00,5.5,2.7,30.46,South,171,0.0,1.0,88,0.00,,,0.00,51,Wunderground v.1.15,2013-01-15 14:17:00,
2013-01-15 08:18:00,5.6,2.8,30.45,South,171,0.0,1.0,88,0.00,,,0.00,53,Wunderground v.1.15,2013-01-15 14:18:00,
2013-01-15 08:21:00,5.8,3.0,30.45,South,171,0.0,0.0,88,0.00,,,0.00,58,Wunderground v.1.15,2013-01-15 14:21:00,
2013-01-15 08:22:00,5.9,3.1,30.45,South,171,1.0,1.0,88,0.00,,,0.00,62,Wunderground v.1.15,2013-01-15 14:22:00,
2013-01-15 08:24:00,6.0,3.2,30.45,South,171,1.0,1.0,88,0.00,,,0.00,65,Wunderground v.1.15,2013-01-15 14:24:00,
2013-01-15 08:25:00,6.0,3.2,30.45,South,171,1.0,1.0,88,0.00,,,0.00,67,Wunderground v.1.15,2013-01-15 14:25:00,
2013-01-15 08:26:00,6.1,3.3,30.45,South,171,1.0,1.0,88,0.00,,,0.00,69,Wunderground v.1.15,2013-01-15 14:26:00,
2013-01-15 08:27:00,6.2,3.4,30.45,South,171,0.0,1.0,88,0.00,,,0.00,72,Wunderground v.1.15,2013-01-15 14:27:00,
2013-01-15 08:30:00,6.3,3.5,30.45,South,171,0.0,0.0,88,0.00,,,0.00,77,Wunderground v.1.15,2013-01-15 14:30:00,
2013-01-15 08:31:00,6.3,3.5,30.45,South,171,0.0,0.0,88,0.00,,,0.00,79,Wunderground v.1.15,2013-01-15 14:31:00,
2013-01-15 08:32:00,6.5,3.7,30.45,South,171,0.0,1.0,88,0.00,,,0.00,81,Wunderground v.1.15,2013-01-15 14:32:00,
2013-01-15 08:35:00,6.9,4.3,30.45,South,171,0.0,1.0,89,0.00,,,0.00,88,Wunderground v.1.15,2013-01-15 14:35:00,
2013-01-15 08:36:00,7.1,4.3,30.45,South,171,0.0,1.0,88,0.00,,,0.00,90,Wunderground v.1.15,2013-01-15 14:36:00,
2013-01-15 08:37:00,7.2,4.4,30.45,South,171,0.0,1.0,88,0.00,,,0.00,91,Wunderground v.1.15,2013-01-15 14:37:00,
2013-01-15 08:38:00,7.3,4.5,30.45,South,171,0.0,1.0,88,0.00,,,0.00,93,Wunderground v.1.15,2013-01-15 14:38:00,
2013-01-15 08:40:00,7.6,4.8,30.45,South,171,0.0,0.0,88,0.00,,,0.00,98,Wunderground v.1.15,2013-01-15 14:40:00,
2013-01-15 08:41:00,7.7,4.9,30.45,South,171,0.0,0.0,88,0.00,,,0.00,100,Wunderground v.1.15,2013-01-15 14:41:00,
2013-01-15 08:42:00,7.7,4.9,30.45,South,171,0.0,0.0,88,0.00,,,0.00,104,Wunderground v.1.15,2013-01-15 14:42:00,
2013-01-15 08:43:00,7.7,4.9,30.45,South,171,0.0,0.0,88,0.00,,,0.00,104,Wunderground v.1.15,2013-01-15 14:43:00,
2013-01-15 08:45:00,7.9,5.1,30.45,South,171,0.0,1.0,88,0.00,,,0.00,113,Wunderground v.1.15,2013-01-15 14:45:00,
2013-01-15 08:46:00,8.0,5.2,30.45,South,171,0.0,1.0,88,0.00,,,0.00,116,Wunderground v.1.15,2013-01-15 14:46:00,
2013-01-15 08:48:00,8.2,5.4,30.45,South,171,0.0,1.0,88,0.00,,,0.00,123,Wunderground v.1.15,2013-01-15 14:48:00,
2013-01-15 08:51:00,8.5,5.9,30.45,South,171,0.0,0.0,89,0.00,,,0.00,135,Wunderground v.1.15,2013-01-15 14:51:00,
2013-01-15 08:53:00,8.7,5.9,30.45,South,171,0.0,0.0,88,0.00,,,0.00,149,Wunderground v.1.15,2013-01-15 14:53:00,
2013-01-15 08:56:00,8.8,6.0,30.45,South,171,1.0,2.0,88,0.00,,,0.00,163,Wunderground v.1.15,2013-01-15 14:56:00,
2013-01-15 08:58:00,8.9,6.1,30.45,South,171,0.0,2.0,88,0.00,,,0.00,163,Wunderground v.1.15,2013-01-15 14:58:00,
2013-01-15 08:59:00,9.0,6.2,30.45,South,171,0.0,2.0,88,0.00,,,0.00,162,Wunderground v.1.15,2013-01-15 14:59:00,
2013-01-15 09:01:00,9.1,6.3,30.45,South,171,0.0,2.0,88,0.00,,,0.00,162,Wunderground v.1.15,2013-01-15 15:01:00,
2013-01-15 09:03:00,9.1,6.3,30.45,South,171,1.0,2.0,88,0.00,,,0.00,165,Wunderground v.1.15,2013-01-15 15:03:00,
2013-01-15 09:04:00,9.2,6.4,30.45,South,171,0.0,2.0,88,0.00,,,0.00,165,Wunderground v.1.15,2013-01-15 15:04:00,
2013-01-15 09:06:00,9.6,7.0,30.45,South,171,0.0,2.0,89,0.00,,,0.00,169,Wunderground v.1.15,2013-01-15 15:06:00,
2013-01-15 09:08:00,9.8,7.2,30.45,South,171,0.0,2.0,89,0.00,,,0.00,169,Wunderground v.1.15,2013-01-15 15:08:00,
2013-01-15 09:09:00,10.2,7.6,30.45,South,171,0.0,2.0,89,0.00,,,0.00,171,Wunderground v.1.15,2013-01-15 15:09:00,
2013-01-15 09:11:00,10.6,8.0,30.45,South,171,0.0,0.0,89,0.00,,,0.00,176,Wunderground v.1.15,2013-01-15 15:11:00,
2013-01-15 09:13:00,10.9,8.3,30.46,South,171,1.0,2.0,89,0.00,,,0.00,179,Wunderground v.1.15,2013-01-15 15:13:00,
2013-01-15 09:14:00,11.1,8.5,30.46,South,171,1.0,4.0,89,0.00,,,0.00,181,Wunderground v.1.15,2013-01-15 15:14:00,
2013-01-15 09:17:00,11.9,9.3,30.46,SE,138,6.0,7.0,89,0.00,,,0.00,181,Wunderground v.1.15,2013-01-15 15:17:00,
2013-01-15 09:18:00,12.3,12.1,30.46,South,171,4.0,7.0,99,0.00,,,0.00,186,Wunderground v.1.15,2013-01-15 15:18:00,
2013-01-15 09:19:00,12.4,12.2,30.46,South,171,2.0,7.0,99,0.00,,,0.00,190,Wunderground v.1.15,2013-01-15 15:19:00,
2013-01-15 09:20:00,12.8,10.4,30.46,South,170,1.0,2.0,90,0.00,,,0.00,190,Wunderground v.1.15,2013-01-15 15:20:00,
2013-01-15 09:22:00,13.3,10.7,30.46,SSE,159,2.0,9.0,89,0.00,,,0.00,185,Wunderground v.1.15,2013-01-15 15:22:00,
2013-01-15 09:23:00,13.5,10.9,30.46,SE,144,2.0,9.0,89,0.00,,,0.00,188,Wunderground v.1.15,2013-01-15 15:23:00,
2013-01-15 09:24:00,13.5,10.9,30.46,SSE,164,2.0,9.0,89,0.00,,,0.00,190,Wunderground v.1.15,2013-01-15 15:24:00,
2013-01-15 09:25:00,13.6,10.7,30.46,SE,140,8.0,9.0,88,0.00,,,0.00,195,Wunderground v.1.15,2013-01-15 15:25:00,
2013-01-15 09:27:00,13.9,11.0,30.46,SSE,157,6.0,9.0,88,0.00,,,0.00,218,Wunderground v.1.15,2013-01-15 15:27:00,
2013-01-15 09:28:00,14.0,11.1,30.46,South,182,4.0,9.0,88,0.00,,,0.00,220,Wunderground v.1.15,2013-01-15 15:28:00,
2013-01-15 09:29:00,14.1,11.2,30.46,South,169,2.0,9.0,88,0.00,,,0.00,227,Wunderground v.1.15,2013-01-15 15:29:00,
2013-01-15 09:30:00,14.3,11.1,30.46,SSE,149,8.0,8.0,87,0.00,,,0.00,246,Wunderground v.1.15,2013-01-15 15:30:00,
2013-01-15 09:32:00,14.6,11.4,30.46,SSE,167,1.0,8.0,87,0.00,,,0.00,258,Wunderground v.1.15,2013-01-15 15:32:00,
2013-01-15 09:34:00,14.8,11.6,30.46,SE,146,1.0,8.0,87,0.00,,,0.00,257,Wunderground v.1.15,2013-01-15 15:34:00,
2013-01-15 09:35:00,15.2,12.0,30.46,South,184,2.0,8.0,87,0.00,,,0.00,239,Wunderground v.1.15,2013-01-15 15:35:00,
2013-01-15 09:38:00,15.5,12.1,30.45,SSE,167,4.0,8.0,86,0.00,,,0.00,216,Wunderground v.1.15,2013-01-15 15:38:00,
2013-01-15 09:39:00,15.6,12.2,30.45,SSE,166,4.0,8.0,86,0.00,,,0.00,204,Wunderground v.1.15,2013-01-15 15:39:00,
2013-01-15 09:40:00,15.8,12.4,30.45,SSE,166,1.0,4.0,86,0.00,,,0.00,227,Wunderground v.1.15,2013-01-15 15:40:00,
2013-01-15 09:43:00,16.3,12.8,30.45,SSE,166,2.0,4.0,86,0.00,,,0.00,267,Wunderground v.1.15,2013-01-15 15:43:00,
2013-01-15 09:44:00,16.4,12.7,30.45,SSE,166,4.0,5.0,85,0.00,,,0.00,285,Wunderground v.1.15,2013-01-15 15:44:00,
2013-01-15 09:45:00,16.4,12.7,30.45,SSE,166,4.0,5.0,85,0.00,,,0.00,292,Wunderground v.1.15,2013-01-15 15:45:00,
2013-01-15 09:46:00,16.5,12.8,30.45,SSE,166,1.0,5.0,85,0.00,,,0.00,301,Wunderground v.1.15,2013-01-15 15:46:00,
2013-01-15 09:48:00,16.6,12.6,30.45,SSE,166,2.0,6.0,84,0.00,,,0.00,313,Wunderground v.1.15,2013-01-15 15:48:00,
2013-01-15 09:49:00,16.7,12.7,30.45,SSE,166,0.0,6.0,84,0.00,,,0.00,311,Wunderground v.1.15,2013-01-15 15:49:00,
2013-01-15 09:50:00,17.0,13.0,30.45,SSE,166,2.0,2.0,84,0.00,,,0.00,308,Wunderground v.1.15,2013-01-15 15:50:00,
2013-01-15 09:51:00,17.1,13.1,30.45,SSE,166,2.0,4.0,84,0.00,,,0.00,301,Wunderground v.1.15,2013-01-15 15:51:00,
2013-01-15 09:53:00,17.5,13.5,30.45,SSE,166,1.0,4.0,84,0.00,,,0.00,292,Wunderground v.1.15,2013-01-15 15:53:00,
2013-01-15 09:54:00,17.6,13.6,30.45,SSE,166,5.0,5.0,84,0.00,,,0.00,250,Wunderground v.1.15,2013-01-15 15:54:00,
2013-01-15 09:55:00,17.7,13.4,30.45,SSE,166,2.0,5.0,83,0.00,,,0.00,237,Wunderground v.1.15,2013-01-15 15:55:00,
2013-01-15 09:56:00,17.7,13.4,30.45,SSE,166,4.0,5.0,83,0.00,,,0.00,246,Wunderground v.1.15,2013-01-15 15:56:00,
2013-01-15 09:59:00,17.9,13.3,30.45,SSE,163,5.0,6.0,82,0.00,,,0.00,278,Wunderground v.1.15,2013-01-15 15:59:00,
2013-01-15 10:00:00,18.0,13.4,30.45,SSE,163,4.0,6.0,82,0.00,,,0.00,285,Wunderground v.1.15,2013-01-15 16:00:00,
2013-01-15 10:02:00,18.1,13.5,30.45,SSE,155,4.0,7.0,82,0.00,,,0.00,288,Wunderground v.1.15,2013-01-15 16:02:00,
2013-01-15 10:04:00,18.2,13.3,30.45,SSE,153,4.0,8.0,81,0.00,,,0.00,297,Wunderground v.1.15,2013-01-15 16:04:00,
2013-01-15 10:05:00,18.2,13.3,30.45,South,170,4.0,8.0,81,0.00,,,0.00,302,Wunderground v.1.15,2013-01-15 16:05:00,
2013-01-15 10:07:00,18.4,13.5,30.45,SSE,165,2.0,8.0,81,0.00,,,0.00,308,Wunderground v.1.15,2013-01-15 16:07:00,
2013-01-15 10:09:00,18.8,13.7,30.45,SSE,168,6.0,8.0,80,0.00,,,0.00,309,Wunderground v.1.15,2013-01-15 16:09:00,
2013-01-15 10:11:00,18.9,13.7,30.45,SE,144,6.0,8.0,80,0.00,,,0.00,313,Wunderground v.1.15,2013-01-15 16:11:00,
2013-01-15 10:12:00,19.0,13.8,30.45,SE,141,7.0,9.0,80,0.00,,,0.00,315,Wunderground v.1.15,2013-01-15 16:12:00,
2013-01-15 10:15:00,19.1,13.7,30.45,South,182,3.0,9.0,79,0.00,,,0.00,322,Wunderground v.1.15,2013-01-15 16:15:00,
2013-01-15 10:16:00,19.3,13.9,30.45,SSE,155,2.0,9.0,79,0.00,,,0.00,327,Wunderground v.1.15,2013-01-15 16:16:00,
2013-01-15 10:17:00,19.5,14.0,30.45,SSE,153,6.0,9.0,79,0.00,,,0.00,330,Wunderground v.1.15,2013-01-15 16:17:00,
2013-01-15 10:20:00,19.9,14.4,30.45,South,179,4.0,5.0,79,0.00,,,0.00,332,Wunderground v.1.15,2013-01-15 16:20:00,
2013-01-15 10:21:00,20.0,14.2,30.45,South,190,3.0,8.0,78,0.00,,,0.00,332,Wunderground v.1.15,2013-01-15 16:21:00,
2013-01-15 10:22:00,20.2,14.4,30.45,South,191,2.0,8.0,78,0.00,,,0.00,336,Wunderground v.1.15,2013-01-15 16:22:00,
2013-01-15 10:25:00,20.5,14.4,30.45,SSE,162,4.0,8.0,77,0.00,,,0.00,339,Wunderground v.1.15,2013-01-15 16:25:00,
2013-01-15 10:27:00,20.7,14.6,30.44,SSE,160,4.0,8.0,77,0.00,,,0.00,341,Wunderground v.1.15,2013-01-15 16:27:00,
2013-01-15 10:31:00,21.2,14.5,30.44,South,173,5.0,10.0,75,0.00,,,0.00,348,Wunderground v.1.15,2013-01-15 16:31:00,
2013-01-15 10:32:00,21.3,14.6,30.44,SSE,148,7.0,10.0,75,0.00,,,0.00,348,Wunderground v.1.15,2013-01-15 16:32:00,
2013-01-15 10:36:00,21.5,14.5,30.44,SE,134,7.0,10.0,74,0.00,,,0.00,357,Wunderground v.1.15,2013-01-15 16:36:00,
2013-01-15 10:37:00,21.5,14.5,30.44,SE,138,6.0,10.0,74,0.00,,,0.00,357,Wunderground v.1.15,2013-01-15 16:37:00,
2013-01-15 10:38:00,21.6,14.6,30.44,South,171,2.0,10.0,74,0.00,,,0.00,357,Wunderground v.1.15,2013-01-15 16:38:00,
2013-01-15 10:41:00,22.0,14.7,30.43,South,169,5.0,9.0,73,0.00,,,0.00,364,Wunderground v.1.15,2013-01-15 16:41:00,
2013-01-15 10:43:00,22.0,14.3,30.43,South,186,4.0,9.0,72,0.00,,,0.00,364,Wunderground v.1.15,2013-01-15 16:43:00,
2013-01-15 10:44:00,22.2,14.9,30.43,South,171,4.0,9.0,73,0.00,,,0.00,367,Wunderground v.1.15,2013-01-15 16:44:00,
2013-01-15 10:46:00,22.3,14.6,30.43,SSE,167,6.0,9.0,72,0.00,,,0.00,369,Wunderground v.1.15,2013-01-15 16:46:00,
2013-01-15 10:48:00,22.3,14.3,30.43,SSE,167,6.0,9.0,71,0.00,,,0.00,371,Wunderground v.1.15,2013-01-15 16:48:00,
2013-01-15 10:49:00,22.4,14.4,30.43,South,172,4.0,9.0,71,0.00,,,0.00,373,Wunderground v.1.15,2013-01-15 16:49:00,
2013-01-15 10:51:00,22.6,14.6,30.43,South,170,6.0,8.0,71,0.00,,,0.00,373,Wunderground v.1.15,2013-01-15 16:51:00,
2013-01-15 10:53:00,22.8,14.8,30.43,SE,138,5.0,8.0,71,0.00,,,0.00,374,Wunderground v.1.15,2013-01-15 16:53:00,
2013-01-15 10:54:00,23.0,14.7,30.43,SSE,168,8.0,9.0,70,0.00,,,0.00,376,Wunderground v.1.15,2013-01-15 16:54:00,
2013-01-15 10:57:00,23.2,14.5,30.43,South,185,4.0,11.0,69,0.00,,,0.00,380,Wunderground v.1.15,2013-01-15 16:57:00,
2013-01-15 10:58:00,23.4,15.1,30.42,SSW,192,4.0,11.0,70,0.00,,,0.00,381,Wunderground v.1.15,2013-01-15 16:58:00,
2013-01-15 10:59:00,23.5,14.8,30.42,South,177,4.0,11.0,69,0.00,,,0.00,381,Wunderground v.1.15,2013-01-15 16:59:00,
2013-01-15 11:00:00,23.6,14.9,30.42,South,170,7.0,9.0,69,0.00,,,0.00,383,Wunderground v.1.15,2013-01-15 17:00:00,
2013-01-15 11:02:00,23.7,14.7,30.42,South,180,5.0,9.0,68,0.00,,,0.00,385,Wunderground v.1.15,2013-01-15 17:02:00,
2013-01-15 11:03:00,23.7,14.7,30.42,SSW,209,7.0,9.0,68,0.00,,,0.00,387,Wunderground v.1.15,2013-01-15 17:03:00,
2013-01-15 11:04:00,23.7,14.7,30.42,South,178,4.0,9.0,68,0.00,,,0.00,387,Wunderground v.1.15,2013-01-15 17:04:00,
2013-01-15 11:06:00,24.0,15.0,30.42,SSE,161,5.0,9.0,68,0.00,,,0.00,388,Wunderground v.1.15,2013-01-15 17:06:00,
2013-01-15 11:08:00,24.1,14.7,30.42,SSE,160,2.0,11.0,67,0.00,,,0.00,387,Wunderground v.1.15,2013-01-15 17:08:00,
2013-01-15 11:09:00,24.4,15.3,30.42,SSW,197,6.0,11.0,68,0.00,,,0.00,390,Wunderground v.1.15,2013-01-15 17:09:00,
2013-01-15 11:11:00,24.5,15.1,30.42,South,184,4.0,5.0,67,0.00,,,0.00,394,Wunderground v.1.15,2013-01-15 17:11:00,
2013-01-15 11:13:00,24.7,15.3,30.42,SSE,161,1.0,9.0,67,0.00,,,0.00,396,Wunderground v.1.15,2013-01-15 17:13:00,
2013-01-15 11:14:00,24.8,15.4,30.41,SSW,204,0.0,9.0,67,0.00,,,0.00,396,Wunderground v.1.15,2013-01-15 17:14:00,
2013-01-15 11:16:00,25.0,15.2,30.41,South,190,7.0,9.0,66,0.00,,,0.00,397,Wunderground v.1.15,2013-01-15 17:16:00,
2013-01-15 11:18:00,25.1,15.3,30.41,SSE,165,6.0,10.0,66,0.00,,,0.00,397,Wunderground v.1.15,2013-01-15 17:18:00,
2013-01-15 11:19:00,25.1,15.0,30.41,SSW,197,6.0,10.0,65,0.00,,,0.00,399,Wunderground v.1.15,2013-01-15 17:19:00,
2013-01-15 11:21:00,25.1,15.0,30.41,South,175,2.0,10.0,65,0.00,,,0.00,403,Wunderground v.1.15,2013-01-15 17:21:00,
2013-01-15 11:24:00,25.4,15.3,30.41,SSE,161,6.0,11.0,65,0.00,,,0.00,406,Wunderground v.1.15,2013-01-15 17:24:00,
2013-01-15 11:27:00,25.4,14.9,30.40,SSW,208,5.0,12.0,64,0.00,,,0.00,408,Wunderground v.1.15,2013-01-15 17:27:00,
2013-01-15 11:29:00,25.4,14.9,30.40,SSE,166,2.0,12.0,64,0.00,,,0.00,410,Wunderground v.1.15,2013-01-15 17:29:00,
2013-01-15 11:32:00,25.7,15.2,30.40,SSE,165,7.0,9.0,64,0.00,,,0.00,411,Wunderground v.1.15,2013-01-15 17:32:00,
2013-01-15 11:34:00,25.7,15.2,30.40,South,185,9.0,9.0,64,0.00,,,0.00,411,Wunderground v.1.15,2013-01-15 17:34:00,
2013-01-15 11:35:00,25.8,15.3,30.40,South,173,7.0,9.0,64,0.00,,,0.00,411,Wunderground v.1.15,2013-01-15 17:35:00,
2013-01-15 11:38:00,26.0,15.5,30.40,SSE,148,9.0,10.0,64,0.00,,,0.00,413,Wunderground v.1.15,2013-01-15 17:38:00,
2013-01-15 11:39:00,26.0,15.1,30.40,SSW,203,8.0,11.0,63,0.00,,,0.00,413,Wunderground v.1.15,2013-01-15 17:39:00,
2013-01-15 11:40:00,26.0,15.1,30.39,SSE,150,7.0,7.0,63,0.00,,,0.00,415,Wunderground v.1.15,2013-01-15 17:40:00,
2013-01-15 11:43:00,26.1,15.2,30.39,South,178,6.0,12.0,63,0.00,,,0.00,417,Wunderground v.1.15,2013-01-15 17:43:00,
2013-01-15 11:44:00,26.2,15.3,30.39,SSW,205,4.0,12.0,63,0.00,,,0.00,418,Wunderground v.1.15,2013-01-15 17:44:00,
2013-01-15 11:45:00,26.2,15.3,30.39,South,181,5.0,12.0,63,0.00,,,0.00,418,Wunderground v.1.15,2013-01-15 17:45:00,
2013-01-15 11:48:00,26.3,15.4,30.39,South,169,10.0,12.0,63,0.00,,,0.00,417,Wunderground v.1.15,2013-01-15 17:48:00,
2013-01-15 11:49:00,26.4,15.5,30.39,South,177,6.0,12.0,63,0.00,,,0.00,417,Wunderground v.1.15,2013-01-15 17:49:00,
2013-01-15 11:50:00,26.4,15.5,30.39,SSE,163,11.0,11.0,63,0.00,,,0.00,415,Wunderground v.1.15,2013-01-15 17:50:00,
2013-01-15 11:51:00,26.4,15.1,30.39,South,171,11.0,15.0,62,0.00,,,0.00,415,Wunderground v.1.15,2013-01-15 17:51:00,
2013-01-15 11:53:00,26.5,15.6,30.39,South,179,4.0,15.0,63,0.00,,,0.00,415,Wunderground v.1.15,2013-01-15 17:53:00,
2013-01-15 11:54:00,26.6,15.7,30.39,South,190,4.0,15.0,63,0.00,,,0.00,411,Wunderground v.1.15,2013-01-15 17:54:00,
2013-01-15 11:56:00,26.9,16.0,30.39,SSE,157,10.0,15.0,63,0.00,,,0.00,413,Wunderground v.1.15,2013-01-15 17:56:00,
2013-01-15 11:58:00,26.9,15.6,30.39,South,171,5.0,15.0,62,0.00,,,0.00,420,Wunderground v.1.15,2013-01-15 17:58:00,
2013-01-15 12:00:00,26.9,15.6,30.39,SSE,150,7.0,7.0,62,0.00,,,0.00,422,Wunderground v.1.15,2013-01-15 18:00:00,
2013-01-15 12:01:00,27.1,15.8,30.39,SW,216,7.0,7.0,62,0.00,,,0.00,422,Wunderground v.1.15,2013-01-15 18:01:00,
2013-01-15 12:04:00,27.3,15.6,30.39,SSE,163,6.0,12.0,61,0.00,,,0.00,424,Wunderground v.1.15,2013-01-15 18:04:00,
2013-01-15 12:05:00,27.2,15.5,30.39,SSE,163,5.0,12.0,61,0.00,,,0.00,422,Wunderground v.1.15,2013-01-15 18:05:00,
2013-01-15 12:06:00,27.3,15.6,30.39,South,172,4.0,12.0,61,0.00,,,0.00,420,Wunderground v.1.15,2013-01-15 18:06:00,
2013-01-15 12:07:00,27.4,15.7,30.39,South,191,4.0,15.0,61,0.00,,,0.00,420,Wunderground v.1.15,2013-01-15 18:07:00,
2013-01-15 12:09:00,27.3,15.2,30.39,SSE,162,7.0,15.0,60,0.00,,,0.00,422,Wunderground v.1.15,2013-01-15 18:09:00,
2013-01-15 12:10:00,27.3,15.6,30.39,South,169,12.0,12.0,61,0.00,,,0.00,424,Wunderground v.1.15,2013-01-15 18:10:00,
2013-01-15 12:12:00,27.2,15.1,30.39,SSE,159,10.0,15.0,60,0.00,,,0.00,425,Wunderground v.1.15,2013-01-15 18:12:00,
2013-01-15 12:14:00,27.1,15.4,30.39,SSE,149,7.0,15.0,61,0.00,,,0.00,424,Wunderground v.1.15,2013-01-15 18:14:00,
2013-01-15 12:15:00,27.1,15.4,30.39,SSE,160,12.0,15.0,61,0.00,,,0.00,424,Wunderground v.1.15,2013-01-15 18:15:00,
2013-01-15 12:17:00,27.1,15.4,30.39,South,186,5.0,15.0,61,0.00,,,0.00,422,Wunderground v.1.15,2013-01-15 18:17:00,
2013-01-15 12:18:00,27.2,15.5,30.38,SE,128,11.0,15.0,61,0.00,,,0.00,420,Wunderground v.1.15,2013-01-15 18:18:00,
2013-01-15 12:19:00,27.2,15.1,30.38,SSE,156,2.0,15.0,60,0.00,,,0.00,420,Wunderground v.1.15,2013-01-15 18:19:00,
2013-01-15 12:20:00,27.4,15.7,30.38,SSE,160,7.0,8.0,61,0.00,,,0.00,422,Wunderground v.1.15,2013-01-15 18:20:00,
2013-01-15 12:22:00,27.5,15.4,30.38,SSW,200,3.0,10.0,60,0.00,,,0.00,422,Wunderground v.1.15,2013-01-15 18:22:00,
2013-01-15 12:24:00,27.8,16.1,30.38,SSW,194,6.0,10.0,61,0.00,,,0.00,420,Wunderground v.1.15,2013-01-15 18:24:00,
2013-01-15 12:25:00,27.8,15.7,30.38,South,177,5.0,10.0,60,0.00,,,0.00,418,Wunderground v.1.15,2013-01-15 18:25:00,
2013-01-15 12:27:00,27.9,15.8,30.38,South,190,6.0,10.0,60,0.00,,,0.00,422,Wunderground v.1.15,2013-01-15 18:27:00,
2013-01-15 12:29:00,28.0,15.9,30.38,SW,219,3.0,10.0,60,0.00,,,0.00,420,Wunderground v.1.15,2013-01-15 18:29:00,
2013-01-15 12:30:00,28.1,16.0,30.38,SSE,168,5.0,8.0,60,0.00,,,0.00,420,Wunderground v.1.15,2013-01-15 18:30:00,
2013-01-15 12:31:00,28.1,16.0,30.38,SSE,162,5.0,11.0,60,0.00,,,0.00,420,Wunderground v.1.15,2013-01-15 18:31:00,
2013-01-15 12:32:00,28.2,16.1,30.37,SSW,212,5.0,11.0,60,0.00,,,0.00,418,Wunderground v.1.15,2013-01-15 18:32:00,
2013-01-15 12:34:00,28.3,16.2,30.37,SSE,167,5.0,11.0,60,0.00,,,0.00,417,Wunderground v.1.15,2013-01-15 18:34:00,
2013-01-15 12:36:00,28.2,15.7,30.37,SSE,168,4.0,11.0,59,0.00,,,0.00,418,Wunderground v.1.15,2013-01-15 18:36:00,
2013-01-15 12:37:00,28.2,15.7,30.37,SSE,161,4.0,11.0,59,0.00,,,0.00,417,Wunderground v.1.15,2013-01-15 18:37:00,
2013-01-15 12:38:00,28.3,15.4,30.37,SSW,192,6.0,11.0,58,0.00,,,0.00,415,Wunderground v.1.15,2013-01-15 18:38:00,
2013-01-15 12:39:00,28.3,15.4,30.37,South,189,6.0,11.0,58,0.00,,,0.00,415,Wunderground v.1.15,2013-01-15 18:39:00,
2013-01-15 12:41:00,28.7,15.8,30.37,SW,220,7.0,13.0,58,0.00,,,0.00,415,Wunderground v.1.15,2013-01-15 18:41:00,
2013-01-15 12:42:00,28.8,15.9,30.37,SSW,202,6.0,13.0,58,0.00,,,0.00,413,Wunderground v.1.15,2013-01-15 18:42:00,
2013-01-15 12:43:00,29.0,16.1,30.37,SW,216,5.0,13.0,58,0.00,,,0.00,413,Wunderground v.1.15,2013-01-15 18:43:00,
2013-01-15 12:44:00,29.0,15.7,30.37,SSW,200,9.0,13.0,57,0.00,,,0.00,411,Wunderground v.1.15,2013-01-15 18:44:00,
2013-01-15 12:47:00,29.0,15.2,30.36,SW,221,11.0,14.0,56,0.00,,,0.00,411,Wunderground v.1.15,2013-01-15 18:47:00,
2013-01-15 12:48:00,29.0,15.2,30.37,SSW,202,11.0,15.0,56,0.00,,,0.00,410,Wunderground v.1.15,2013-01-15 18:48:00,
2013-01-15 12:49:00,28.9,15.2,30.37,SSW,213,10.0,15.0,56,0.00,,,0.00,408,Wunderground v.1.15,2013-01-15 18:49:00,
2013-01-15 12:52:00,28.9,15.2,30.36,SSW,213,13.0,13.0,56,0.00,,,0.00,406,Wunderground v.1.15,2013-01-15 18:52:00,
2013-01-15 12:53:00,28.9,15.6,30.36,SW,219,9.0,14.0,57,0.00,,,0.00,404,Wunderground v.1.15,2013-01-15 18:53:00,
2013-01-15 12:55:00,28.8,15.1,30.36,SSW,209,8.0,14.0,56,0.00,,,0.00,404,Wunderground v.1.15,2013-01-15 18:55:00,
2013-01-15 12:57:00,29.0,15.7,30.36,SSW,200,8.0,14.0,57,0.00,,,0.00,403,Wunderground v.1.15,2013-01-15 18:57:00,
2013-01-15 12:59:00,29.3,15.9,30.36,SSW,196,7.0,14.0,57,0.00,,,0.00,401,Wunderground v.1.15,2013-01-15 18:59:00,
2013-01-15 13:00:00,29.4,15.2,30.36,South,181,6.0,8.0,55,0.00,,,0.00,401,Wunderground v.1.15,2013-01-15 19:00:00,
2013-01-15 13:02:00,29.3,15.1,30.36,SSE,159,7.0,9.0,55,0.00,,,0.00,397,Wunderground v.1.15,2013-01-15 19:02:00,
2013-01-15 13:03:00,29.2,15.0,30.36,South,171,6.0,10.0,55,0.00,,,0.00,399,Wunderground v.1.15,2013-01-15 19:03:00,
2013-01-15 13:04:00,29.1,14.9,30.36,South,171,6.0,14.0,55,0.00,,,0.00,399,Wunderground v.1.15,2013-01-15 19:04:00,
2013-01-15 13:05:00,29.2,15.4,30.35,South,184,7.0,14.0,56,0.00,,,0.00,397,Wunderground v.1.15,2013-01-15 19:05:00,
2013-01-15 13:07:00,29.4,15.6,30.35,South,186,6.0,14.0,56,0.00,,,0.00,394,Wunderground v.1.15,2013-01-15 19:07:00,
2013-01-15 13:08:00,29.4,15.2,30.35,South,180,5.0,14.0,55,0.00,,,0.00,394,Wunderground v.1.15,2013-01-15 19:08:00,
2013-01-15 13:09:00,29.3,15.1,30.35,SW,218,8.0,14.0,55,0.00,,,0.00,394,Wunderground v.1.15,2013-01-15 19:09:00,
2013-01-15 13:11:00,29.3,15.1,30.35,South,179,4.0,10.0,55,0.00,,,0.00,394,Wunderground v.1.15,2013-01-15 19:11:00,
2013-01-15 13:12:00,29.2,15.0,30.35,SSE,157,4.0,10.0,55,0.00,,,0.00,394,Wunderground v.1.15,2013-01-15 19:12:00,
2013-01-15 13:13:00,29.2,15.0,30.35,South,169,6.0,13.0,55,0.00,,,0.00,394,Wunderground v.1.15,2013-01-15 19:13:00,
2013-01-15 13:14:00,29.2,14.6,30.35,SSW,203,8.0,13.0,54,0.00,,,0.00,392,Wunderground v.1.15,2013-01-15 19:14:00,
2013-01-15 13:16:00,29.3,15.1,30.35,South,190,7.0,13.0,55,0.00,,,0.00,390,Wunderground v.1.15,2013-01-15 19:16:00,
2013-01-15 13:18:00,29.8,16.0,30.35,South,177,6.0,13.0,56,0.00,,,0.00,385,Wunderground v.1.15,2013-01-15 19:18:00,
2013-01-15 13:20:00,29.9,15.7,30.35,SSE,153,7.0,7.0,55,0.00,,,0.00,380,Wunderground v.1.15,2013-01-15 19:20:00,
2013-01-15 13:21:00,29.8,15.2,30.35,South,188,7.0,11.0,54,0.00,,,0.00,376,Wunderground v.1.15,2013-01-15 19:21:00,
2013-01-15 13:23:00,29.6,15.0,30.35,South,169,2.0,11.0,54,0.00,,,0.00,376,Wunderground v.1.15,2013-01-15 19:23:00,
2013-01-15 13:24:00,29.6,15.4,30.35,SW,225,7.0,11.0,55,0.00,,,0.00,374,Wunderground v.1.15,2013-01-15 19:24:00,
2013-01-15 13:25:00,29.7,15.1,30.35,SSW,198,3.0,11.0,54,0.00,,,0.00,374,Wunderground v.1.15,2013-01-15 19:25:00,
2013-01-15 13:26:00,29.8,15.6,30.34,South,180,3.0,11.0,55,0.00,,,0.00,369,Wunderground v.1.15,2013-01-15 19:26:00,
2013-01-15 13:28:00,29.8,15.2,30.34,South,185,8.0,11.0,54,0.00,,,0.00,367,Wunderground v.1.15,2013-01-15 19:28:00,
2013-01-15 13:29:00,29.8,15.2,30.34,SSW,202,5.0,11.0,54,0.00,,,0.00,366,Wunderground v.1.15,2013-01-15 19:29:00,
2013-01-15 13:30:00,29.7,14.6,30.34,South,175,7.0,12.0,53,0.00,,,0.00,366,Wunderground v.1.15,2013-01-15 19:30:00,
2013-01-15 13:32:00,29.7,14.6,30.34,SSW,198,11.0,12.0,53,0.00,,,0.00,364,Wunderground v.1.15,2013-01-15 19:32:00,
2013-01-15 13:34:00,29.7,14.6,30.34,South,169,4.0,12.0,53,0.00,,,0.00,362,Wunderground v.1.15,2013-01-15 19:34:00,
2013-01-15 13:35:00,29.9,15.3,30.34,South,186,4.0,12.0,54,0.00,,,0.00,364,Wunderground v.1.15,2013-01-15 19:35:00,
2013-01-15 13:37:00,29.8,14.7,30.34,SSW,193,9.0,15.0,53,0.00,,,0.00,360,Wunderground v.1.15,2013-01-15 19:37:00,
2013-01-15 13:39:00,29.7,14.6,30.34,SW,214,6.0,15.0,53,0.00,,,0.00,355,Wunderground v.1.15,2013-01-15 19:39:00,
2013-01-15 13:40:00,29.7,15.1,30.33,West,259,10.0,10.0,54,0.00,,,0.00,355,Wunderground v.1.15,2013-01-15 19:40:00,
2013-01-15 13:43:00,29.8,14.7,30.33,SSW,213,8.0,15.0,53,0.00,,,0.00,352,Wunderground v.1.15,2013-01-15 19:43:00,
2013-01-15 13:44:00,29.8,15.2,30.33,South,169,8.0,15.0,54,0.00,,,0.00,348,Wunderground v.1.15,2013-01-15 19:44:00,
2013-01-15 13:45:00,29.9,15.3,30.33,SSW,198,12.0,15.0,54,0.00,,,0.00,348,Wunderground v.1.15,2013-01-15 19:45:00,
2013-01-15 13:49:00,29.8,14.7,30.33,SSW,195,5.0,15.0,53,0.00,,,0.00,343,Wunderground v.1.15,2013-01-15 19:49:00,
2013-01-15 13:51:00,29.8,15.2,30.33,SSW,198,7.0,9.0,54,0.00,,,0.00,339,Wunderground v.1.15,2013-01-15 19:51:00,
2013-01-15 13:54:00,30.0,14.9,30.33,SSW,193,5.0,9.0,53,0.00,,,0.00,332,Wunderground v.1.15,2013-01-15 19:54:00,
2013-01-15 13:55:00,30.1,15.0,30.33,SSW,194,5.0,9.0,53,0.00,,,0.00,330,Wunderground v.1.15,2013-01-15 19:55:00,
2013-01-15 13:56:00,30.1,15.4,30.33,SSW,205,5.0,9.0,54,0.00,,,0.00,330,Wunderground v.1.15,2013-01-15 19:56:00,
2013-01-15 13:59:00,30.1,15.4,30.33,South,183,5.0,9.0,54,0.00,,,0.00,329,Wunderground v.1.15,2013-01-15 19:59:00,
2013-01-15 14:00:00,30.1,15.0,30.33,South,190,5.0,7.0,53,0.00,,,0.00,327,Wunderground v.1.15,2013-01-15 20:00:00,
2013-01-15 14:01:00,30.0,14.9,30.33,South,169,5.0,8.0,53,0.00,,,0.00,327,Wunderground v.1.15,2013-01-15 20:01:00,
2013-01-15 14:04:00,29.9,15.3,30.32,SSW,201,3.0,10.0,54,0.00,,,0.00,316,Wunderground v.1.15,2013-01-15 20:04:00,
2013-01-15 14:06:00,30.2,15.5,30.32,South,176,8.0,11.0,54,0.00,,,0.00,315,Wunderground v.1.15,2013-01-15 20:06:00,
2013-01-15 14:09:00,30.2,15.5,30.33,South,174,5.0,11.0,54,0.00,,,0.00,311,Wunderground v.1.15,2013-01-15 20:09:00,
2013-01-15 14:10:00,30.2,15.5,30.33,SW,218,6.0,6.0,54,0.00,,,0.00,308,Wunderground v.1.15,2013-01-15 20:10:00,
2013-01-15 14:11:00,30.3,15.6,30.33,SSW,200,3.0,6.0,54,0.00,,,0.00,308,Wunderground v.1.15,2013-01-15 20:11:00,
2013-01-15 14:12:00,30.4,16.1,30.33,South,188,3.0,7.0,55,0.00,,,0.00,308,Wunderground v.1.15,2013-01-15 20:12:00,
2013-01-15 14:15:00,30.5,15.4,30.33,South,175,7.0,7.0,53,0.00,,,0.00,302,Wunderground v.1.15,2013-01-15 20:15:00,
2013-01-15 14:17:00,30.6,15.5,30.33,South,170,2.0,7.0,53,0.00,,,0.00,301,Wunderground v.1.15,2013-01-15 20:17:00,
2013-01-15 14:20:00,30.4,15.3,30.33,SSW,192,12.0,13.0,53,0.00,,,0.00,295,Wunderground v.1.15,2013-01-15 20:20:00,
2013-01-15 14:21:00,30.3,15.2,30.33,SSW,194,8.0,13.0,53,0.00,,,0.00,292,Wunderground v.1.15,2013-01-15 20:21:00,
2013-01-15 14:22:00,30.2,15.1,30.33,South,178,8.0,13.0,53,0.00,,,0.00,290,Wunderground v.1.15,2013-01-15 20:22:00,
2013-01-15 14:23:00,30.1,15.0,30.33,SSW,193,7.0,13.0,53,0.00,,,0.00,290,Wunderground v.1.15,2013-01-15 20:23:00,
2013-01-15 14:25:00,29.9,14.8,30.33,SE,143,8.0,14.0,53,0.00,,,0.00,285,Wunderground v.1.15,2013-01-15 20:25:00,
2013-01-15 14:27:00,29.9,15.3,30.33,SSE,159,13.0,18.0,54,0.00,,,0.00,281,Wunderground v.1.15,2013-01-15 20:27:00,
2013-01-15 14:28:00,29.9,15.3,30.33,SSE,150,16.0,18.0,54,0.00,,,0.00,279,Wunderground v.1.15,2013-01-15 20:28:00,
2013-01-15 14:30:00,30.0,15.3,30.33,South,191,7.0,11.0,54,0.00,,,0.00,274,Wunderground v.1.15,2013-01-15 20:30:00,
2013-01-15 14:33:00,30.0,15.3,30.33,SSW,198,5.0,11.0,54,0.00,,,0.00,269,Wunderground v.1.15,2013-01-15 20:33:00,
2013-01-15 14:35:00,30.0,14.9,30.33,SSE,165,8.0,11.0,53,0.00,,,0.00,264,Wunderground v.1.15,2013-01-15 20:35:00,
2013-01-15 14:38:00,30.0,15.3,30.32,SSW,196,9.0,11.0,54,0.00,,,0.00,257,Wunderground v.1.15,2013-01-15 20:38:00,
2013-01-15 14:39:00,30.0,15.3,30.32,SSW,207,6.0,11.0,54,0.00,,,0.00,255,Wunderground v.1.15,2013-01-15 20:39:00,
2013-01-15 14:41:00,30.0,14.9,30.33,SSW,192,5.0,16.0,53,0.00,,,0.00,251,Wunderground v.1.15,2013-01-15 20:41:00,
2013-01-15 14:43:00,29.8,14.7,30.32,South,172,8.0,16.0,53,0.00,,,0.00,244,Wunderground v.1.15,2013-01-15 20:43:00,
2013-01-15 14:44:00,29.8,14.7,30.32,South,190,4.0,16.0,53,0.00,,,0.00,244,Wunderground v.1.15,2013-01-15 20:44:00,
2013-01-15 14:46:00,29.8,14.7,30.32,SW,215,8.0,16.0,53,0.00,,,0.00,237,Wunderground v.1.15,2013-01-15 20:46:00,
2013-01-15 14:49:00,29.9,15.3,30.32,SSW,195,5.0,16.0,54,0.00,,,0.00,232,Wunderground v.1.15,2013-01-15 20:49:00,
2013-01-15 14:51:00,30.0,15.3,30.32,SSW,194,8.0,9.0,54,0.00,,,0.00,227,Wunderground v.1.15,2013-01-15 20:51:00,
2013-01-15 14:54:00,30.0,15.3,30.32,SSW,213,9.0,10.0,54,0.00,,,0.00,218,Wunderground v.1.15,2013-01-15 20:54:00,
2013-01-15 14:56:00,29.9,15.3,30.32,SW,223,6.0,10.0,54,0.00,,,0.00,213,Wunderground v.1.15,2013-01-15 20:56:00,
2013-01-15 14:59:00,30.0,15.3,30.32,South,186,4.0,10.0,54,0.00,,,0.00,207,Wunderground v.1.15,2013-01-15 20:59:00,
2013-01-15 15:01:00,29.9,14.8,30.32,SSW,194,4.0,8.0,53,0.00,,,0.00,200,Wunderground v.1.15,2013-01-15 21:01:00,
2013-01-15 15:02:00,29.9,15.3,30.32,South,180,4.0,8.0,54,0.00,,,0.00,199,Wunderground v.1.15,2013-01-15 21:02:00,
2013-01-15 15:04:00,29.9,15.3,30.32,South,188,11.0,12.0,54,0.00,,,0.00,195,Wunderground v.1.15,2013-01-15 21:04:00,
2013-01-15 15:06:00,29.9,15.3,30.32,SSW,197,5.0,12.0,54,0.00,,,0.00,186,Wunderground v.1.15,2013-01-15 21:06:00,
2013-01-15 15:07:00,29.9,15.3,30.32,South,191,2.0,12.0,54,0.00,,,0.00,185,Wunderground v.1.15,2013-01-15 21:07:00,
2013-01-15 15:09:00,30.1,15.4,30.31,SSW,205,1.0,12.0,54,0.00,,,0.00,181,Wunderground v.1.15,2013-01-15 21:09:00,
2013-01-15 15:10:00,30.1,15.4,30.32,SSE,168,9.0,9.0,54,0.00,,,0.00,178,Wunderground v.1.15,2013-01-15 21:10:00,
2013-01-15 15:11:00,30.0,15.3,30.31,South,178,7.0,10.0,54,0.00,,,0.00,174,Wunderground v.1.15,2013-01-15 21:11:00,
2013-01-15 15:12:00,30.0,15.3,30.31,South,169,5.0,10.0,54,0.00,,,0.00,174,Wunderground v.1.15,2013-01-15 21:12:00,
2013-01-15 15:14:00,30.1,15.4,30.31,South,178,5.0,10.0,54,0.00,,,0.00,167,Wunderground v.1.15,2013-01-15 21:14:00,
2013-01-15 15:15:00,30.1,15.4,30.31,South,180,4.0,13.0,54,0.00,,,0.00,163,Wunderground v.1.15,2013-01-15 21:15:00,
2013-01-15 15:17:00,30.1,15.4,30.31,SSE,167,6.0,13.0,54,0.00,,,0.00,162,Wunderground v.1.15,2013-01-15 21:17:00,
2013-01-15 15:19:00,30.1,15.4,30.31,South,182,2.0,13.0,54,0.00,,,0.00,153,Wunderground v.1.15,2013-01-15 21:19:00,
2013-01-15 15:21:00,30.1,15.4,30.31,South,174,4.0,9.0,54,0.00,,,0.00,148,Wunderground v.1.15,2013-01-15 21:21:00,
2013-01-15 15:22:00,30.1,15.4,30.31,SW,221,12.0,12.0,54,0.00,,,0.00,146,Wunderground v.1.15,2013-01-15 21:22:00,
2013-01-15 15:24:00,30.0,14.9,30.31,SSW,207,12.0,15.0,53,0.00,,,0.00,141,Wunderground v.1.15,2013-01-15 21:24:00,
2013-01-15 15:26:00,30.1,15.0,30.31,SSW,207,8.0,15.0,53,0.00,,,0.00,135,Wunderground v.1.15,2013-01-15 21:26:00,
2013-01-15 15:27:00,30.0,15.3,30.31,SSE,164,6.0,15.0,54,0.00,,,0.00,134,Wunderground v.1.15,2013-01-15 21:27:00,
2013-01-15 15:30:00,30.1,15.0,30.31,SSW,197,5.0,8.0,53,0.00,,,0.00,123,Wunderground v.1.15,2013-01-15 21:30:00,
2013-01-15 15:31:00,30.1,15.0,30.31,SSW,197,6.0,9.0,53,0.00,,,0.00,121,Wunderground v.1.15,2013-01-15 21:31:00,
2013-01-15 15:32:00,30.1,15.0,30.31,SSE,159,7.0,10.0,53,0.00,,,0.00,120,Wunderground v.1.15,2013-01-15 21:32:00,
2013-01-15 15:35:00,30.1,15.4,30.31,South,182,1.0,10.0,54,0.00,,,0.00,113,Wunderground v.1.15,2013-01-15 21:35:00,
2013-01-15 15:36:00,30.2,15.5,30.31,SW,215,4.0,10.0,54,0.00,,,0.00,111,Wunderground v.1.15,2013-01-15 21:36:00,
2013-01-15 15:37:00,30.2,15.5,30.31,SSW,207,5.0,10.0,54,0.00,,,0.00,107,Wunderground v.1.15,2013-01-15 21:37:00,
2013-01-15 15:38:00,30.2,15.5,30.31,South,187,4.0,10.0,54,0.00,,,0.00,105,Wunderground v.1.15,2013-01-15 21:38:00,
2013-01-15 15:40:00,30.1,15.4,30.31,SSW,196,9.0,9.0,54,0.00,,,0.00,100,Wunderground v.1.15,2013-01-15 21:40:00,
2013-01-15 15:42:00,30.1,15.0,30.31,South,186,4.0,11.0,53,0.00,,,0.00,97,Wunderground v.1.15,2013-01-15 21:42:00,
2013-01-15 15:43:00,30.0,14.9,30.31,SW,223,11.0,11.0,53,0.00,,,0.00,95,Wunderground v.1.15,2013-01-15 21:43:00,
2013-01-15 15:46:00,30.0,14.9,30.31,SSW,202,5.0,11.0,53,0.00,,,0.00,86,Wunderground v.1.15,2013-01-15 21:46:00,
2013-01-15 15:47:00,30.0,14.9,30.31,SSW,207,8.0,11.0,53,0.00,,,0.00,83,Wunderground v.1.15,2013-01-15 21:47:00,
2013-01-15 15:48:00,30.0,14.9,30.31,SSW,195,5.0,11.0,53,0.00,,,0.00,81,Wunderground v.1.15,2013-01-15 21:48:00,
2013-01-15 15:51:00,30.0,15.3,30.31,SSE,162,7.0,8.0,54,0.00,,,0.00,76,Wunderground v.1.15,2013-01-15 21:51:00,
2013-01-15 15:52:00,29.9,15.3,30.31,SSE,164,8.0,9.0,54,0.00,,,0.00,72,Wunderground v.1.15,2013-01-15 21:52:00,
2013-01-15 15:54:00,29.9,14.8,30.31,SSE,157,7.0,12.0,53,0.00,,,0.00,67,Wunderground v.1.15,2013-01-15 21:54:00,
2013-01-15 15:56:00,29.9,14.8,30.31,SSW,209,5.0,12.0,53,0.00,,,0.00,62,Wunderground v.1.15,2013-01-15 21:56:00,
2013-01-15 15:58:00,29.9,15.3,30.31,SSW,196,3.0,12.0,54,0.00,,,0.00,56,Wunderground v.1.15,2013-01-15 21:58:00,
2013-01-15 15:59:00,29.9,15.3,30.31,SW,214,5.0,12.0,54,0.00,,,0.00,44,Wunderground v.1.15,2013-01-15 21:59:00,
2013-01-15 16:01:00,29.8,15.2,30.31,South,171,5.0,6.0,54,0.00,,,0.00,39,Wunderground v.1.15,2013-01-15 22:01:00,
2013-01-15 16:03:00,29.8,15.2,30.31,South,186,3.0,7.0,54,0.00,,,0.00,39,Wunderground v.1.15,2013-01-15 22:03:00,
2013-01-15 16:04:00,29.7,15.1,30.31,SSW,200,3.0,7.0,54,0.00,,,0.00,35,Wunderground v.1.15,2013-01-15 22:04:00,
2013-01-15 16:06:00,29.7,15.1,30.30,South,169,4.0,12.0,54,0.00,,,0.00,32,Wunderground v.1.15,2013-01-15 22:06:00,
2013-01-15 16:08:00,29.6,15.0,30.30,South,178,4.0,12.0,54,0.00,,,0.00,33,Wunderground v.1.15,2013-01-15 22:08:00,
2013-01-15 16:10:00,29.5,15.3,30.30,SW,229,7.0,7.0,55,0.00,,,0.00,33,Wunderground v.1.15,2013-01-15 22:10:00,
2013-01-15 16:12:00,29.5,14.9,30.30,SW,215,1.0,7.0,54,0.00,,,0.00,30,Wunderground v.1.15,2013-01-15 22:12:00,
2013-01-15 16:13:00,29.4,15.2,30.30,SSW,211,4.0,7.0,55,0.00,,,0.00,30,Wunderground v.1.15,2013-01-15 22:13:00,
2013-01-15 16:14:00,29.4,15.2,30.30,South,190,4.0,7.0,55,0.00,,,0.00,28,Wunderground v.1.15,2013-01-15 22:14:00,
2013-01-15 16:15:00,29.4,15.2,30.30,SSW,199,4.0,7.0,55,0.00,,,0.00,26,Wunderground v.1.15,2013-01-15 22:15:00,
2013-01-15 16:17:00,29.4,15.2,30.30,SSW,208,4.0,7.0,55,0.00,,,0.00,25,Wunderground v.1.15,2013-01-15 22:17:00,
2013-01-15 16:18:00,29.3,15.1,30.30,SSW,201,3.0,7.0,55,0.00,,,0.00,23,Wunderground v.1.15,2013-01-15 22:18:00,
2013-01-15 16:19:00,29.3,15.1,30.30,SSW,201,2.0,7.0,55,0.00,,,0.00,23,Wunderground v.1.15,2013-01-15 22:19:00,
2013-01-15 16:20:00,29.2,15.0,30.30,SSW,194,4.0,7.0,55,0.00,,,0.00,21,Wunderground v.1.15,2013-01-15 22:20:00,
2013-01-15 16:22:00,29.2,15.0,30.30,SSW,201,5.0,8.0,55,0.00,,,0.00,21,Wunderground v.1.15,2013-01-15 22:22:00,
2013-01-15 16:24:00,29.2,15.0,30.30,SSW,196,5.0,10.0,55,0.00,,,0.00,19,Wunderground v.1.15,2013-01-15 22:24:00,
2013-01-15 16:25:00,29.2,15.0,30.30,SSW,208,5.0,10.0,55,0.00,,,0.00,19,Wunderground v.1.15,2013-01-15 22:25:00,
2013-01-15 16:27:00,29.2,15.0,30.30,SSW,192,6.0,10.0,55,0.00,,,0.00,19,Wunderground v.1.15,2013-01-15 22:27:00,
2013-01-15 16:29:00,29.2,15.0,30.30,SSW,211,7.0,10.0,55,0.00,,,0.00,18,Wunderground v.1.15,2013-01-15 22:29:00,
2013-01-15 16:31:00,29.2,15.0,30.30,South,190,6.0,7.0,55,0.00,,,0.00,16,Wunderground v.1.15,2013-01-15 22:31:00,
2013-01-15 16:32:00,29.2,15.0,30.30,South,178,1.0,7.0,55,0.00,,,0.00,16,Wunderground v.1.15,2013-01-15 22:32:00,
2013-01-15 16:34:00,29.1,15.3,30.30,South,190,3.0,8.0,56,0.00,,,0.00,14,Wunderground v.1.15,2013-01-15 22:34:00,
2013-01-15 16:36:00,29.0,15.2,30.30,South,190,2.0,8.0,56,0.00,,,0.00,12,Wunderground v.1.15,2013-01-15 22:36:00,
2013-01-15 16:37:00,29.0,15.2,30.30,South,190,1.0,8.0,56,0.00,,,0.00,12,Wunderground v.1.15,2013-01-15 22:37:00,
2013-01-15 16:39:00,28.9,15.2,30.30,South,190,0.0,8.0,56,0.00,,,0.00,11,Wunderground v.1.15,2013-01-15 22:39:00,
2013-01-15 16:40:00,28.9,15.2,30.30,South,190,3.0,4.0,56,0.00,,,0.00,11,Wunderground v.1.15,2013-01-15 22:40:00,
2013-01-15 16:41:00,28.8,15.1,30.30,South,177,2.0,6.0,56,0.00,,,0.00,11,Wunderground v.1.15,2013-01-15 22:41:00,
2013-01-15 16:43:00,28.8,15.1,30.30,South,169,1.0,6.0,56,0.00,,,0.00,9,Wunderground v.1.15,2013-01-15 22:43:00,
2013-01-15 16:45:00,28.7,15.0,30.29,South,169,2.0,6.0,56,0.00,,,0.00,7,Wunderground v.1.15,2013-01-15 22:45:00,
2013-01-15 16:46:00,28.7,15.4,30.29,South,169,4.0,6.0,57,0.00,,,0.00,7,Wunderground v.1.15,2013-01-15 22:46:00,
2013-01-15 16:48:00,28.7,15.4,30.29,South,169,2.0,6.0,57,0.00,,,0.00,7,Wunderground v.1.15,2013-01-15 22:48:00,
2013-01-15 16:50:00,28.6,15.3,30.29,SSW,198,1.0,3.0,57,0.00,,,0.00,5,Wunderground v.1.15,2013-01-15 22:50:00,
2013-01-15 16:51:00,28.6,15.3,30.29,SSW,198,2.0,3.0,57,0.00,,,0.00,5,Wunderground v.1.15,2013-01-15 22:51:00,
2013-01-15 16:53:00,28.5,15.2,30.29,SSW,198,1.0,4.0,57,0.00,,,0.00,0,Wunderground v.1.15,2013-01-15 22:53:00,
2013-01-15 16:55:00,28.4,15.1,30.29,SSW,198,2.0,4.0,57,0.00,,,0.00,0,Wunderground v.1.15,2013-01-15 22:55:00,
2013-01-15 16:56:00,28.3,15.0,30.29,SSW,198,4.0,4.0,57,0.00,,,0.00,0,Wunderground v.1.15,2013-01-15 22:56:00,
2013-01-15 16:58:00,28.2,15.3,30.29,SSW,198,2.0,4.0,58,0.00,,,0.00,0,Wunderground v.1.15,2013-01-15 22:58:00,
2013-01-15 17:00:00,28.1,15.2,30.29,SSW,198,4.0,5.0,58,0.00,,,0.00,0,Wunderground v.1.15,2013-01-15 23:00:00,
2013-01-15 17:01:00,28.1,15.2,30.29,SSW,198,3.0,5.0,58,0.00,,,0.00,0,Wunderground v.1.15,2013-01-15 23:01:00,
2013-01-15 17:02:00,28.1,15.2,30.29,SSW,198,1.0,5.0,58,0.00,,,0.00,0,Wunderground v.1.15,2013-01-15 23:02:00,
2013-01-15 17:04:00,28.0,15.1,30.29,SSW,198,2.0,5.0,58,0.00,,,0.00,0,Wunderground v.1.15,2013-01-15 23:04:00,
2013-01-15 17:06:00,27.9,15.0,30.29,SSW,198,2.0,5.0,58,0.00,,,0.00,0,Wunderground v.1.15,2013-01-15 23:06:00,
2013-01-15 17:07:00,27.8,14.9,30.29,SSW,198,2.0,5.0,58,0.00,,,0.00,0,Wunderground v.1.15,2013-01-15 23:07:00,
2013-01-15 17:10:00,27.7,15.2,30.29,SSW,198,0.0,2.0,59,0.00,,,0.00,0,Wunderground v.1.15,2013-01-15 23:10:00,
2013-01-15 17:11:00,27.7,15.2,30.29,SSW,198,1.0,3.0,59,0.00,,,0.00,0,Wunderground v.1.15,2013-01-15 23:11:00,
2013-01-15 17:13:00,27.6,15.1,30.29,South,184,5.0,5.0,59,0.00,,,0.00,0,Wunderground v.1.15,2013-01-15 23:13:00,
2013-01-15 17:15:00,27.6,15.1,30.29,South,175,1.0,5.0,59,0.00,,,0.00,0,Wunderground v.1.15,2013-01-15 23:15:00,
2013-01-15 17:16:00,27.6,15.1,30.29,South,175,4.0,5.0,59,0.00,,,0.00,0,Wunderground v.1.15,2013-01-15 23:16:00,
2013-01-15 17:17:00,27.6,15.1,30.29,South,175,5.0,5.0,59,0.00,,,0.00,0,Wunderground v.1.15,2013-01-15 23:17:00,
2013-01-15 17:18:00,27.6,15.1,30.29,South,175,5.0,5.0,59,0.00,,,0.00,0,Wunderground v.1.15,2013-01-15 23:18:00,
2013-01-15 17:21:00,27.6,15.1,30.29,SSE,161,5.0,9.0,59,0.00,,,0.00,0,Wunderground v.1.15,2013-01-15 23:21:00,
2013-01-15 17:24:00,27.7,15.2,30.29,SSE,167,0.0,9.0,59,0.00,,,0.00,0,Wunderground v.1.15,2013-01-15 23:24:00,
2013-01-15 17:26:00,27.6,15.1,30.29,SSE,164,2.0,9.0,59,0.00,,,0.00,0,Wunderground v.1.15,2013-01-15 23:26:00,
2013-01-15 17:29:00,27.6,15.1,30.29,South,171,7.0,9.0,59,0.00,,,0.00,0,Wunderground v.1.15,2013-01-15 23:29:00,
2013-01-15 17:30:00,27.6,15.1,30.29,South,170,0.0,4.0,59,0.00,,,0.00,0,Wunderground v.1.15,2013-01-15 23:30:00,
2013-01-15 17:31:00,27.6,15.1,30.29,South,170,2.0,5.0,59,0.00,,,0.00,0,Wunderground v.1.15,2013-01-15 23:31:00,
2013-01-15 17:32:00,27.6,15.1,30.29,South,170,5.0,5.0,59,0.00,,,0.00,0,Wunderground v.1.15,2013-01-15 23:32:00,
2013-01-15 17:35:00,27.5,15.0,30.29,South,172,6.0,6.0,59,0.00,,,0.00,0,Wunderground v.1.15,2013-01-15 23:35:00,
2013-01-15 17:37:00,27.5,15.0,30.28,SSE,153,6.0,9.0,59,0.00,,,0.00,0,Wunderground v.1.15,2013-01-15 23:37:00,
2013-01-15 17:40:00,27.5,15.0,30.28,South,185,1.0,4.0,59,0.00,,,0.00,0,Wunderground v.1.15,2013-01-15 23:40:00,
2013-01-15 17:41:00,27.5,15.0,30.28,South,178,4.0,8.0,59,0.00,,,0.00,0,Wunderground v.1.15,2013-01-15 23:41:00,
2013-01-15 17:43:00,27.5,15.0,30.28,South,178,1.0,8.0,59,0.00,,,0.00,0,Wunderground v.1.15,2013-01-15 23:43:00,
2013-01-15 17:45:00,27.4,14.9,30.28,SSE,150,6.0,8.0,59,0.00,,,0.00,0,Wunderground v.1.15,2013-01-15 23:45:00,
2013-01-15 17:46:00,27.4,14.9,30.28,South,178,6.0,8.0,59,0.00,,,0.00,0,Wunderground v.1.15,2013-01-15 23:46:00,
2013-01-15 17:48:00,27.4,15.3,30.28,SSE,161,6.0,10.0,60,0.00,,,0.00,0,Wunderground v.1.15,2013-01-15 23:48:00,
2013-01-15 17:50:00,27.3,15.2,30.28,South,183,1.0,9.0,60,0.00,,,0.00,0,Wunderground v.1.15,2013-01-15 23:50:00,
2013-01-15 17:51:00,27.3,15.2,30.28,South,169,7.0,9.0,60,0.00,,,0.00,0,Wunderground v.1.15,2013-01-15 23:51:00,
2013-01-15 17:53:00,27.3,15.2,30.28,South,182,2.0,9.0,60,0.00,,,0.00,0,Wunderground v.1.15,2013-01-15 23:53:00,
2013-01-15 17:55:00,27.3,15.2,30.28,SSE,165,2.0,9.0,60,0.00,,,0.00,0,Wunderground v.1.15,2013-01-15 23:55:00,
2013-01-15 17:57:00,27.2,15.1,30.28,South,169,2.0,9.0,60,0.00,,,0.00,0,Wunderground v.1.15,2013-01-15 23:57:00,
2013-01-15 17:58:00,27.2,15.1,30.28,SSE,155,6.0,9.0,60,0.00,,,0.00,0,Wunderground v.1.15,2013-01-15 23:58:00,
2013-01-15 17:59:00,27.2,15.1,30.28,SSW,194,3.0,9.0,60,0.00,,,0.00,0,Wunderground v.1.15,2013-01-15 23:59:00,
2013-01-15 18:01:00,27.2,15.1,30.28,SSW,194,1.0,4.0,60,0.00,,,0.00,0,Wunderground v.1.15,2013-01-16 00:01:00,
2013-01-15 18:02:00,27.1,15.0,30.28,South,182,4.0,4.0,60,0.00,,,0.00,0,Wunderground v.1.15,2013-01-16 00:02:00,
2013-01-15 18:03:00,27.0,14.9,30.28,SSE,156,2.0,6.0,60,0.00,,,0.00,0,Wunderground v.1.15,2013-01-16 00:03:00,
2013-01-15 18:04:00,27.0,14.9,30.27,South,184,2.0,6.0,60,0.00,,,0.00,0,Wunderground v.1.15,2013-01-16 00:04:00,
2013-01-15 18:07:00,26.9,15.2,30.27,SSW,202,3.0,10.0,61,0.00,,,0.00,0,Wunderground v.1.15,2013-01-16 00:07:00,
2013-01-15 18:09:00,26.9,15.2,30.27,South,188,4.0,10.0,61,0.00,,,0.00,0,Wunderground v.1.15,2013-01-16 00:09:00,
2013-01-15 18:12:00,26.9,15.2,30.27,South,184,5.0,8.0,61,0.00,,,0.00,0,Wunderground v.1.15,2013-01-16 00:12:00,
2013-01-15 18:14:00,26.9,15.2,30.27,SSW,207,2.0,9.0,61,0.00,,,0.00,0,Wunderground v.1.15,2013-01-16 00:14:00,
2013-01-15 18:15:00,26.9,15.2,30.27,SSW,202,3.0,9.0,61,0.00,,,0.00,0,Wunderground v.1.15,2013-01-16 00:15:00,
2013-01-15 18:17:00,26.9,15.2,30.27,SSW,195,2.0,9.0,61,0.00,,,0.00,0,Wunderground v.1.15,2013-01-16 00:17:00,
2013-01-15 18:19:00,26.8,15.1,30.27,South,190,3.0,9.0,61,0.00,,,0.00,0,Wunderground v.1.15,2013-01-16 00:19:00,
2013-01-15 18:20:00,26.8,15.1,30.27,South,178,2.0,5.0,61,0.00,,,0.00,0,Wunderground v.1.15,2013-01-16 00:20:00,
2013-01-15 18:23:00,26.7,15.0,30.27,SSE,165,1.0,6.0,61,0.00,,,0.00,0,Wunderground v.1.15,2013-01-16 00:23:00,
2013-01-15 18:24:00,26.6,14.9,30.27,SSE,165,1.0,6.0,61,0.00,,,0.00,0,Wunderground v.1.15,2013-01-16 00:24:00,
2013-01-15 18:25:00,26.6,14.9,30.27,SSE,165,1.0,6.0,61,0.00,,,0.00,0,Wunderground v.1.15,2013-01-16 00:25:00,
2013-01-15 18:28:00,26.5,14.9,30.27,South,171,4.0,6.0,61,0.00,,,0.00,0,Wunderground v.1.15,2013-01-16 00:28:00,
2013-01-15 18:29:00,26.6,14.9,30.27,South,171,1.0,6.0,61,0.00,,,0.00,0,Wunderground v.1.15,2013-01-16 00:29:00,
2013-01-15 18:31:00,26.5,14.9,30.27,SE,144,2.0,7.0,61,0.00,,,0.00,0,Wunderground v.1.15,2013-01-16 00:31:00,
2013-01-15 18:34:00,26.4,14.8,30.27,SE,144,1.0,7.0,61,0.00,,,0.00,0,Wunderground v.1.15,2013-01-16 00:34:00,
2013-01-15 18:35:00,26.3,15.0,30.26,SE,144,0.0,7.0,62,0.00,,,0.00,0,Wunderground v.1.15,2013-01-16 00:35:00,
2013-01-15 18:36:00,26.3,15.0,30.26,SE,144,1.0,7.0,62,0.00,,,0.00,0,Wunderground v.1.15,2013-01-16 00:36:00,
2013-01-15 18:39:00,26.2,14.9,30.26,SE,144,1.0,7.0,62,0.00,,,0.00,0,Wunderground v.1.15,2013-01-16 00:39:00,
2013-01-15 18:40:00,26.1,14.8,30.26,SE,142,4.0,7.0,62,0.00,,,0.00,0,Wunderground v.1.15,2013-01-16 00:40:00,
2013-01-15 18:42:00,26.1,14.8,30.26,SE,142,2.0,7.0,62,0.00,,,0.00,0,Wunderground v.1.15,2013-01-16 00:42:00,
2013-01-15 18:44:00,26.0,14.8,30.26,SE,142,1.0,7.0,62,0.00,,,0.00,0,Wunderground v.1.15,2013-01-16 00:44:00,
2013-01-15 18:45:00,25.9,14.7,30.26,SE,142,2.0,7.0,62,0.00,,,0.00,0,Wunderground v.1.15,2013-01-16 00:45:00,
2013-01-15 18:46:00,25.9,14.7,30.26,SE,142,4.0,7.0,62,0.00,,,0.00,0,Wunderground v.1.15,2013-01-16 00:46:00,
2013-01-15 18:47:00,25.9,14.7,30.26,SE,142,5.0,7.0,62,0.00,,,0.00,0,Wunderground v.1.15,2013-01-16 00:47:00,
2013-01-15 18:49:00,25.8,14.9,30.26,SE,142,4.0,7.0,63,0.00,,,0.00,0,Wunderground v.1.15,2013-01-16 00:49:00,
2013-01-15 18:50:00,25.8,14.9,30.26,SE,142,5.0,5.0,63,0.00,,,0.00,0,Wunderground v.1.15,2013-01-16 00:50:00,
2013-01-15 18:51:00,25.8,14.9,30.26,SE,142,2.0,5.0,63,0.00,,,0.00,0,Wunderground v.1.15,2013-01-16 00:51:00,
2013-01-15 18:52:00,25.7,14.8,30.26,SSE,147,1.0,6.0,63,0.00,,,0.00,0,Wunderground v.1.15,2013-01-16 00:52:00,
2013-01-15 18:54:00,25.7,14.8,30.26,SE,142,2.0,6.0,63,0.00,,,0.00,0,Wunderground v.1.15,2013-01-16 00:54:00,
2013-01-15 18:55:00,25.6,14.7,30.26,SE,142,4.0,6.0,63,0.00,,,0.00,0,Wunderground v.1.15,2013-01-16 00:55:00,
2013-01-15 18:56:00,25.7,14.8,30.26,SE,142,5.0,6.0,63,0.00,,,0.00,0,Wunderground v.1.15,2013-01-16 00:56:00,
2013-01-15 18:57:00,25.6,14.7,30.26,SE,142,2.0,6.0,63,0.00,,,0.00,0,Wunderground v.1.15,2013-01-16 00:57:00,
2013-01-15 18:59:00,25.5,14.6,30.26,SE,142,6.0,6.0,63,0.00,,,0.00,0,Wunderground v.1.15,2013-01-16 00:59:00,
2013-01-15 19:01:00,25.5,14.6,30.26,SE,143,4.0,7.0,63,0.00,,,0.00,0,Wunderground v.1.15,2013-01-16 01:01:00,
2013-01-15 19:02:00,25.5,14.6,30.26,SE,143,2.0,7.0,63,0.00,,,0.00,0,Wunderground v.1.15,2013-01-16 01:02:00,
2013-01-15 19:05:00,25.5,14.6,30.26,SE,143,4.0,7.0,63,0.00,,,0.00,0,Wunderground v.1.15,2013-01-16 01:05:00,
2013-01-15 19:06:00,25.5,15.0,30.26,SE,143,2.0,7.0,64,0.00,,,0.00,0,Wunderground v.1.15,2013-01-16 01:06:00,
2013-01-15 19:07:00,25.4,14.9,30.26,South,169,6.0,7.0,64,0.00,,,0.00,0,Wunderground v.1.15,2013-01-16 01:07:00,
2013-01-15 19:10:00,25.4,14.9,30.26,South,182,1.0,3.0,64,0.00,,,0.00,0,Wunderground v.1.15,2013-01-16 01:10:00,
2013-01-15 19:11:00,25.4,14.9,30.26,South,182,3.0,3.0,64,0.00,,,0.00,0,Wunderground v.1.15,2013-01-16 01:11:00,
2013-01-15 19:12:00,25.4,14.9,30.26,South,182,2.0,4.0,64,0.00,,,0.00,0,Wunderground v.1.15,2013-01-16 01:12:00,
2013-01-15 19:13:00,25.4,14.9,30.26,South,182,3.0,4.0,64,0.00,,,0.00,0,Wunderground v.1.15,2013-01-16 01:13:00,
2013-01-15 19:15:00,25.3,14.8,30.25,South,182,3.0,4.0,64,0.00,,,0.00,0,Wunderground v.1.15,2013-01-16 01:15:00,
2013-01-15 19:16:00,25.3,14.8,30.25,South,180,4.0,4.0,64,0.00,,,0.00,0,Wunderground v.1.15,2013-01-16 01:16:00,
2013-01-15 19:17:00,25.3,14.8,30.25,South,173,5.0,5.0,64,0.00,,,0.00,0,Wunderground v.1.15,2013-01-16 01:17:00,
2013-01-15 19:18:00,25.3,14.8,30.25,SSE,168,5.0,5.0,64,0.00,,,0.00,0,Wunderground v.1.15,2013-01-16 01:18:00,
2013-01-15 19:21:00,25.2,14.7,30.25,SSE,160,2.0,2.0,64,0.00,,,0.00,0,Wunderground v.1.15,2013-01-16 01:21:00,
2013-01-15 19:22:00,25.1,14.6,30.25,SSE,160,2.0,6.0,64,0.00,,,0.00,0,Wunderground v.1.15,2013-01-16 01:22:00,
2013-01-15 19:23:00,25.1,14.6,30.25,SSE,160,2.0,6.0,64,0.00,,,0.00,0,Wunderground v.1.15,2013-01-16 01:23:00,
2013-01-15 19:26:00,24.9,14.4,30.25,SSE,160,2.0,6.0,64,0.00,,,0.00,0,Wunderground v.1.15,2013-01-16 01:26:00,
2013-01-15 19:27:00,24.9,14.4,30.25,SSE,160,4.0,6.0,64,0.00,,,0.00,0,Wunderground v.1.15,2013-01-16 01:27:00,
2013-01-15 19:28:00,24.9,14.4,30.25,SSE,160,4.0,6.0,64,0.00,,,0.00,0,Wunderground v.1.15,2013-01-16 01:28:00,
2013-01-15 19:31:00,24.9,14.8,30.24,SSE,157,2.0,7.0,65,0.00,,,0.00,0,Wunderground v.1.15,2013-01-16 01:31:00,
2013-01-15 19:33:00,24.8,14.7,30.24,SSE,157,2.0,7.0,65,0.00,,,0.00,0,Wunderground v.1.15,2013-01-16 01:33:00,
2013-01-15 19:37:00,24.7,14.6,30.24,SSE,157,2.0,7.0,65,0.00,,,0.00,0,Wunderground v.1.15,2013-01-16 01:37:00,
2013-01-15 19:38:00,24.7,14.6,30.24,SSE,157,2.0,7.0,65,0.00,,,0.00,0,Wunderground v.1.15,2013-01-16 01:38:00,
2013-01-15 19:39:00,24.7,14.6,30.24,SSE,157,0.0,7.0,65,0.00,,,0.00,0,Wunderground v.1.15,2013-01-16 01:39:00,
2013-01-15 19:42:00,24.6,14.5,30.24,SSE,157,1.0,2.0,65,0.00,,,0.00,0,Wunderground v.1.15,2013-01-16 01:42:00,
2013-01-15 19:43:00,24.6,14.5,30.24,SSE,157,4.0,4.0,65,0.00,,,0.00,0,Wunderground v.1.15,2013-01-16 01:43:00,
2013-01-15 19:44:00,24.6,14.5,30.24,SSE,157,0.0,4.0,65,0.00,,,0.00,0,Wunderground v.1.15,2013-01-16 01:44:00,
2013-01-15 19:45:00,24.5,14.4,30.24,SSE,157,0.0,4.0,65,0.00,,,0.00,0,Wunderground v.1.15,2013-01-16 01:45:00,
2013-01-15 19:47:00,24.4,14.7,30.24,SSE,157,0.0,4.0,66,0.00,,,0.00,0,Wunderground v.1.15,2013-01-16 01:47:00,
2013-01-15 19:49:00,24.4,14.7,30.24,SSE,157,0.0,4.0,66,0.00,,,0.00,0,Wunderground v.1.15,2013-01-16 01:49:00,
2013-01-15 19:50:00,24.4,14.7,30.24,SSE,157,2.0,2.0,66,0.00,,,0.00,0,Wunderground v.1.15,2013-01-16 01:50:00,
2013-01-15 19:52:00,24.4,14.7,30.24,SSE,157,0.0,5.0,66,0.00,,,0.00,0,Wunderground v.1.15,2013-01-16 01:52:00,
2013-01-15 19:54:00,24.4,14.7,30.24,SSE,157,0.0,5.0,66,0.00,,,0.00,0,Wunderground v.1.15,2013-01-16 01:54:00,
2013-01-15 19:55:00,24.4,14.7,30.24,SSE,157,0.0,5.0,66,0.00,,,0.00,0,Wunderground v.1.15,2013-01-16 01:55:00,
2013-01-15 19:57:00,24.4,14.7,30.23,SSE,157,0.0,5.0,66,0.00,,,0.00,0,Wunderground v.1.15,2013-01-16 01:57:00,
2013-01-15 19:59:00,24.4,14.7,30.23,SSE,157,2.0,8.0,66,0.00,,,0.00,0,Wunderground v.1.15,2013-01-16 01:59:00,
2013-01-15 20:00:00,24.4,14.7,30.23,South,187,3.0,3.0,66,0.00,,,0.00,0,Wunderground v.1.15,2013-01-16 02:00:00,
2013-01-15 20:03:00,24.3,14.6,30.23,South,171,5.0,6.0,66,0.00,,,0.00,0,Wunderground v.1.15,2013-01-16 02:03:00,
2013-01-15 20:04:00,24.3,14.6,30.23,South,171,7.0,8.0,66,0.00,,,0.00,0,Wunderground v.1.15,2013-01-16 02:04:00,
2013-01-15 20:05:00,24.3,14.6,30.23,SSE,161,6.0,8.0,66,0.00,,,0.00,0,Wunderground v.1.15,2013-01-16 02:05:00,
2013-01-15 20:08:00,24.4,14.7,30.23,SSE,150,6.0,10.0,66,0.00,,,0.00,0,Wunderground v.1.15,2013-01-16 02:08:00,
2013-01-15 20:10:00,24.4,14.7,30.23,South,172,2.0,4.0,66,0.00,,,0.00,0,Wunderground v.1.15,2013-01-16 02:10:00,
2013-01-15 20:15:00,24.4,14.7,30.22,SSE,158,2.0,9.0,66,0.00,,,0.00,0,Wunderground v.1.15,2013-01-16 02:15:00,
2013-01-15 20:20:00,24.3,14.6,30.22,South,189,4.0,6.0,66,0.00,,,0.00,0,Wunderground v.1.15,2013-01-16 02:20:00,
2013-01-15 20:21:00,24.3,14.6,30.22,South,178,5.0,6.0,66,0.00,,,0.00,0,Wunderground v.1.15,2013-01-16 02:21:00,
2013-01-15 20:25:00,24.3,14.6,30.22,SSW,196,2.0,7.0,66,0.00,,,0.00,0,Wunderground v.1.15,2013-01-16 02:25:00,
2013-01-15 20:26:00,24.3,14.6,30.22,SSW,194,2.0,7.0,66,0.00,,,0.00,0,Wunderground v.1.15,2013-01-16 02:26:00,
2013-01-15 20:27:00,24.3,14.6,30.22,South,181,2.0,7.0,66,0.00,,,0.00,0,Wunderground v.1.15,2013-01-16 02:27:00,
2013-01-15 20:30:00,24.3,14.6,30.22,South,171,2.0,5.0,66,0.00,,,0.00,0,Wunderground v.1.15,2013-01-16 02:30:00,
2013-01-15 20:31:00,24.3,14.6,30.22,South,171,0.0,5.0,66,0.00,,,0.00,0,Wunderground v.1.15,2013-01-16 02:31:00,
2013-01-15 20:32:00,24.3,14.6,30.22,South,170,2.0,5.0,66,0.00,,,0.00,0,Wunderground v.1.15,2013-01-16 02:32:00,
2013-01-15 20:35:00,24.3,14.6,30.22,SSE,153,5.0,7.0,66,0.00,,,0.00,0,Wunderground v.1.15,2013-01-16 02:35:00,
2013-01-15 20:36:00,24.3,14.6,30.22,SSW,193,3.0,7.0,66,0.00,,,0.00,0,Wunderground v.1.15,2013-01-16 02:36:00,
2013-01-15 20:37:00,24.2,14.5,30.22,SSE,151,4.0,7.0,66,0.00,,,0.00,0,Wunderground v.1.15,2013-01-16 02:37:00,
2013-01-15 20:41:00,24.1,14.4,30.22,SSE,151,5.0,5.0,66,0.00,,,0.00,0,Wunderground v.1.15,2013-01-16 02:41:00,
2013-01-15 20:42:00,24.1,14.4,30.22,SSE,151,4.0,5.0,66,0.00,,,0.00,0,Wunderground v.1.15,2013-01-16 02:42:00,
2013-01-15 20:46:00,24.0,14.3,30.21,SSE,151,2.0,5.0,66,0.00,,,0.00,0,Wunderground v.1.15,2013-01-16 02:46:00,
2013-01-15 20:47:00,24.0,14.3,30.21,SSE,151,4.0,5.0,66,0.00,,,0.00,0,Wunderground v.1.15,2013-01-16 02:47:00,
2013-01-15 20:51:00,23.8,14.4,30.21,SSE,151,5.0,5.0,67,0.00,,,0.00,0,Wunderground v.1.15,2013-01-16 02:51:00,
2013-01-15 20:52:00,23.8,14.4,30.21,SSE,152,4.0,5.0,67,0.00,,,0.00,0,Wunderground v.1.15,2013-01-16 02:52:00,
2013-01-15 20:53:00,23.8,14.4,30.21,SSE,152,2.0,5.0,67,0.00,,,0.00,0,Wunderground v.1.15,2013-01-16 02:53:00,
2013-01-15 20:56:00,23.7,14.3,30.21,SSE,152,1.0,5.0,67,0.00,,,0.00,0,Wunderground v.1.15,2013-01-16 02:56:00,
2013-01-15 20:57:00,23.6,14.2,30.21,SSE,152,4.0,5.0,67,0.00,,,0.00,0,Wunderground v.1.15,2013-01-16 02:57:00,
2013-01-15 20:58:00,23.6,14.2,30.21,SSE,152,2.0,5.0,67,0.00,,,0.00,0,Wunderground v.1.15,2013-01-16 02:58:00,
2013-01-15 21:01:00,23.5,14.1,30.21,SSE,152,1.0,5.0,67,0.00,,,0.00,0,Wunderground v.1.15,2013-01-16 03:01:00,
2013-01-15 21:03:00,23.5,14.1,30.21,SSE,152,1.0,5.0,67,0.00,,,0.00,0,Wunderground v.1.15,2013-01-16 03:03:00,
2013-01-15 21:05:00,23.4,14.4,30.20,SSE,152,1.0,5.0,68,0.00,,,0.00,0,Wunderground v.1.15,2013-01-16 03:05:00,
2013-01-15 21:06:00,23.4,14.4,30.20,SSE,152,5.0,6.0,68,0.00,,,0.00,0,Wunderground v.1.15,2013-01-16 03:06:00,
2013-01-15 21:08:00,23.3,14.3,30.20,SSE,152,5.0,6.0,68,0.00,,,0.00,0,Wunderground v.1.15,2013-01-16 03:08:00,
2013-01-15 21:10:00,23.3,14.3,30.20,SSE,152,4.0,5.0,68,0.00,,,0.00,0,Wunderground v.1.15,2013-01-16 03:10:00,
2013-01-15 21:11:00,23.3,14.3,30.20,SSE,152,2.0,5.0,68,0.00,,,0.00,0,Wunderground v.1.15,2013-01-16 03:11:00,
2013-01-15 21:12:00,23.3,14.3,30.20,SSE,152,4.0,5.0,68,0.00,,,0.00,0,Wunderground v.1.15,2013-01-16 03:12:00,
2013-01-15 21:13:00,23.3,14.3,30.20,SSE,152,0.0,5.0,68,0.00,,,0.00,0,Wunderground v.1.15,2013-01-16 03:13:00,
2013-01-15 21:15:00,23.2,14.2,30.20,SSE,152,2.0,5.0,68,0.00,,,0.00,0,Wunderground v.1.15,2013-01-16 03:15:00,
2013-01-15 21:16:00,23.2,14.2,30.20,SSE,152,2.0,5.0,68,0.00,,,0.00,0,Wunderground v.1.15,2013-01-16 03:16:00,
2013-01-15 21:17:00,23.2,14.2,30.20,SSE,152,1.0,5.0,68,0.00,,,0.00,0,Wunderground v.1.15,2013-01-16 03:17:00,
2013-01-15 21:19:00,23.1,14.1,30.20,SSE,152,2.0,5.0,68,0.00,,,0.00,0,Wunderground v.1.15,2013-01-16 03:19:00,
2013-01-15 21:20:00,23.1,14.1,30.20,SSE,152,2.0,5.0,68,0.00,,,0.00,0,Wunderground v.1.15,2013-01-16 03:20:00,
2013-01-15 21:21:00,23.1,14.1,30.20,SSE,152,0.0,5.0,68,0.00,,,0.00,0,Wunderground v.1.15,2013-01-16 03:21:00,
2013-01-15 21:22:00,23.1,14.1,30.20,SSE,152,1.0,5.0,68,0.00,,,0.00,0,Wunderground v.1.15,2013-01-16 03:22:00,
2013-01-15 21:24:00,23.1,14.1,30.19,SSE,152,0.0,5.0,68,0.00,,,0.00,0,Wunderground v.1.15,2013-01-16 03:24:00,
2013-01-15 21:26:00,23.0,14.0,30.19,SSE,152,1.0,5.0,68,0.00,,,0.00,0,Wunderground v.1.15,2013-01-16 03:26:00,
2013-01-15 21:27:00,23.0,14.0,30.19,SSE,152,0.0,5.0,68,0.00,,,0.00,0,Wunderground v.1.15,2013-01-16 03:27:00,
2013-01-15 21:30:00,22.9,13.9,30.19,SSE,152,2.0,4.0,68,0.00,,,0.00,0,Wunderground v.1.15,2013-01-16 03:30:00,
2013-01-15 21:32:00,22.9,13.9,30.19,SSE,152,0.0,5.0,68,0.00,,,0.00,0,Wunderground v.1.15,2013-01-16 03:32:00,
2013-01-15 21:35:00,22.7,14.1,30.19,SSE,152,1.0,5.0,69,0.00,,,0.00,0,Wunderground v.1.15,2013-01-16 03:35:00,
2013-01-15 21:37:00,22.7,14.1,30.19,SSE,152,1.0,5.0,69,0.00,,,0.00,0,Wunderground v.1.15,2013-01-16 03:37:00,
2013-01-15 21:40:00,22.7,14.1,30.18,SSE,156,8.0,8.0,69,0.00,,,0.00,0,Wunderground v.1.15,2013-01-16 03:40:00,
2013-01-15 21:42:00,22.8,14.1,30.18,SSE,148,6.0,10.0,69,0.00,,,0.00,0,Wunderground v.1.15,2013-01-16 03:42:00,
2013-01-15 21:43:00,22.8,14.1,30.18,SE,140,5.0,10.0,69,0.00,,,0.00,0,Wunderground v.1.15,2013-01-16 03:43:00,
2013-01-15 21:46:00,22.8,14.1,30.18,South,188,3.0,10.0,69,0.00,,,0.00,0,Wunderground v.1.15,2013-01-16 03:46:00,
2013-01-15 21:47:00,22.8,14.1,30.18,South,188,1.0,10.0,69,0.00,,,0.00,0,Wunderground v.1.15,2013-01-16 03:47:00,
2013-01-15 21:48:00,22.8,14.1,30.18,South,188,3.0,10.0,69,0.00,,,0.00,0,Wunderground v.1.15,2013-01-16 03:48:00,
2013-01-15 21:49:00,22.7,14.1,30.18,SSE,155,5.0,10.0,69,0.00,,,0.00,0,Wunderground v.1.15,2013-01-16 03:49:00,
2013-01-15 21:52:00,22.8,14.1,30.18,South,176,1.0,11.0,69,0.00,,,0.00,0,Wunderground v.1.15,2013-01-16 03:52:00,
2013-01-15 21:53:00,22.8,14.1,30.18,South,175,5.0,11.0,69,0.00,,,0.00,0,Wunderground v.1.15,2013-01-16 03:53:00,
2013-01-15 21:54:00,22.8,14.1,30.18,SSE,163,6.0,11.0,69,0.00,,,0.00,0,Wunderground v.1.15,2013-01-16 03:54:00,
2013-01-15 21:57:00,22.8,14.1,30.18,South,184,3.0,11.0,69,0.00,,,0.00,0,Wunderground v.1.15,2013-01-16 03:57:00,
2013-01-15 21:59:00,22.9,14.2,30.18,South,178,6.0,11.0,69,0.00,,,0.00,0,Wunderground v.1.15,2013-01-16 03:59:00,
2013-01-15 22:02:00,23.0,14.3,30.18,South,171,5.0,6.0,69,0.00,,,0.00,0,Wunderground v.1.15,2013-01-16 04:02:00,
2013-01-15 22:04:00,23.0,14.3,30.18,SE,143,8.0,9.0,69,0.00,,,0.00,0,Wunderground v.1.15,2013-01-16 04:04:00,
2013-01-15 22:08:00,23.0,14.0,30.17,SSE,155,6.0,9.0,68,0.00,,,0.00,0,Wunderground v.1.15,2013-01-16 04:08:00,
2013-01-15 22:09:00,22.9,13.9,30.17,South,181,6.0,9.0,68,0.00,,,0.00,0,Wunderground v.1.15,2013-01-16 04:09:00,
2013-01-15 22:10:00,22.9,13.9,30.17,SSE,157,6.0,9.0,68,0.00,,,0.00,0,Wunderground v.1.15,2013-01-16 04:10:00,
2013-01-15 22:13:00,22.8,13.8,30.17,SE,135,9.0,11.0,68,0.00,,,0.00,0,Wunderground v.1.15,2013-01-16 04:13:00,
2013-01-15 22:14:00,22.8,14.1,30.17,South,169,5.0,11.0,69,0.00,,,0.00,0,Wunderground v.1.15,2013-01-16 04:14:00,
2013-01-15 22:15:00,22.9,13.9,30.16,SSE,161,4.0,11.0,68,0.00,,,0.00,0,Wunderground v.1.15,2013-01-16 04:15:00,
2013-01-15 22:18:00,22.8,13.8,30.17,SSE,155,5.0,11.0,68,0.00,,,0.00,0,Wunderground v.1.15,2013-01-16 04:18:00,
2013-01-15 22:19:00,22.8,13.8,30.16,SE,146,7.0,12.0,68,0.00,,,0.00,0,Wunderground v.1.15,2013-01-16 04:19:00,
2013-01-15 22:20:00,22.8,13.8,30.16,SSE,163,6.0,6.0,68,0.00,,,0.00,0,Wunderground v.1.15,2013-01-16 04:20:00,
2013-01-15 22:21:00,22.8,13.8,30.17,SSE,152,2.0,7.0,68,0.00,,,0.00,0,Wunderground v.1.15,2013-01-16 04:21:00,
2013-01-15 22:24:00,22.7,13.7,30.16,SSE,148,5.0,7.0,68,0.00,,,0.00,0,Wunderground v.1.15,2013-01-16 04:24:00,
2013-01-15 22:25:00,22.7,14.1,30.16,SE,131,6.0,8.0,69,0.00,,,0.00,0,Wunderground v.1.15,2013-01-16 04:25:00,
2013-01-15 22:26:00,22.7,14.1,30.16,SSE,163,6.0,8.0,69,0.00,,,0.00,0,Wunderground v.1.15,2013-01-16 04:26:00,
2013-01-15 22:29:00,22.6,14.0,30.16,SSE,164,2.0,8.0,69,0.00,,,0.00,0,Wunderground v.1.15,2013-01-16 04:29:00,
2013-01-15 22:30:00,22.6,14.0,30.16,SSE,167,4.0,6.0,69,0.00,,,0.00,0,Wunderground v.1.15,2013-01-16 04:30:00,
2013-01-15 22:31:00,22.6,14.0,30.16,SSE,167,5.0,6.0,69,0.00,,,0.00,0,Wunderground v.1.15,2013-01-16 04:31:00,
2013-01-15 22:35:00,22.5,13.9,30.16,SSE,147,2.0,10.0,69,0.00,,,0.00,0,Wunderground v.1.15,2013-01-16 04:35:00,
2013-01-15 22:36:00,22.4,13.8,30.16,SSE,166,6.0,10.0,69,0.00,,,0.00,0,Wunderground v.1.15,2013-01-16 04:36:00,
2013-01-15 22:40:00,22.3,13.7,30.16,SSE,161,4.0,5.0,69,0.00,,,0.00,0,Wunderground v.1.15,2013-01-16 04:40:00,
2013-01-15 22:41:00,22.3,13.7,30.16,SE,134,6.0,6.0,69,0.00,,,0.00,0,Wunderground v.1.15,2013-01-16 04:41:00,
2013-01-15 22:42:00,22.2,13.6,30.16,SSE,161,5.0,6.0,69,0.00,,,0.00,0,Wunderground v.1.15,2013-01-16 04:42:00,
2013-01-15 22:45:00,22.2,13.6,30.16,SSE,156,5.0,9.0,69,0.00,,,0.00,0,Wunderground v.1.15,2013-01-16 04:45:00,
2013-01-15 22:46:00,22.2,13.6,30.16,SSE,161,2.0,9.0,69,0.00,,,0.00,0,Wunderground v.1.15,2013-01-16 04:46:00,
2013-01-15 22:47:00,22.2,13.6,30.16,South,179,2.0,9.0,69,0.00,,,0.00,0,Wunderground v.1.15,2013-01-16 04:47:00,
2013-01-15 22:50:00,22.0,13.4,30.15,SSE,163,4.0,8.0,69,0.00,,,0.00,0,Wunderground v.1.15,2013-01-16 04:50:00,
2013-01-15 22:51:00,22.0,13.4,30.15,SSE,153,2.0,8.0,69,0.00,,,0.00,0,Wunderground v.1.15,2013-01-16 04:51:00,
2013-01-15 22:53:00,22.0,13.7,30.15,SSE,151,5.0,8.0,70,0.00,,,0.00,0,Wunderground v.1.15,2013-01-16 04:53:00,
2013-01-15 22:55:00,22.0,13.7,30.15,SSE,152,2.0,8.0,70,0.00,,,0.00,0,Wunderground v.1.15,2013-01-16 04:55:00,
2013-01-15 22:56:00,22.0,13.7,30.15,South,179,4.0,8.0,70,0.00,,,0.00,0,Wunderground v.1.15,2013-01-16 04:56:00,
2013-01-15 22:58:00,22.0,13.7,30.15,SSE,155,6.0,8.0,70,0.00,,,0.00,0,Wunderground v.1.15,2013-01-16 04:58:00,
2013-01-15 23:00:00,22.0,13.7,30.15,SSE,158,2.0,4.0,70,0.00,,,0.00,0,Wunderground v.1.15,2013-01-16 05:00:00,
2013-01-15 23:02:00,21.9,13.6,30.15,SSE,158,2.0,5.0,70,0.00,,,0.00,0,Wunderground v.1.15,2013-01-16 05:02:00,
2013-01-15 23:03:00,21.9,13.6,30.15,SE,142,6.0,8.0,70,0.00,,,0.00,0,Wunderground v.1.15,2013-01-16 05:03:00,
2013-01-15 23:06:00,21.9,13.6,30.15,SE,146,4.0,8.0,70,0.00,,,0.00,0,Wunderground v.1.15,2013-01-16 05:06:00,
2013-01-15 23:08:00,21.9,13.6,30.14,SSE,153,7.0,8.0,70,0.00,,,0.00,0,Wunderground v.1.15,2013-01-16 05:08:00,
2013-01-15 23:11:00,21.8,13.5,30.14,South,185,2.0,8.0,70,0.00,,,0.00,0,Wunderground v.1.15,2013-01-16 05:11:00,
2013-01-15 23:13:00,21.8,13.5,30.14,South,175,4.0,8.0,70,0.00,,,0.00,0,Wunderground v.1.15,2013-01-16 05:13:00,
2013-01-15 23:14:00,21.8,13.5,30.14,SSE,155,4.0,8.0,70,0.00,,,0.00,0,Wunderground v.1.15,2013-01-16 05:14:00,
2013-01-15 23:16:00,21.8,13.5,30.14,SSE,153,4.0,8.0,70,0.00,,,0.00,0,Wunderground v.1.15,2013-01-16 05:16:00,
2013-01-15 23:19:00,21.9,13.6,30.14,SSE,159,2.0,14.0,70,0.00,,,0.00,0,Wunderground v.1.15,2013-01-16 05:19:00,
2013-01-15 23:22:00,21.8,13.2,30.13,South,176,4.0,10.0,69,0.00,,,0.00,0,Wunderground v.1.15,2013-01-16 05:22:00,
2013-01-15 23:24:00,21.8,13.5,30.13,SSE,157,6.0,10.0,70,0.00,,,0.00,0,Wunderground v.1.15,2013-01-16 05:24:00,
2013-01-15 23:26:00,21.8,13.5,30.13,South,173,5.0,10.0,70,0.00,,,0.00,0,Wunderground v.1.15,2013-01-16 05:26:00,
2013-01-15 23:29:00,21.8,13.5,30.13,South,175,7.0,10.0,70,0.00,,,0.00,0,Wunderground v.1.15,2013-01-16 05:29:00,
2013-01-15 23:32:00,21.8,13.5,30.13,South,186,3.0,6.0,70,0.00,,,0.00,0,Wunderground v.1.15,2013-01-16 05:32:00,
2013-01-15 23:34:00,21.7,13.4,30.13,SSE,156,4.0,6.0,70,0.00,,,0.00,0,Wunderground v.1.15,2013-01-16 05:34:00,
2013-01-15 23:35:00,21.7,13.4,30.13,South,172,5.0,6.0,70,0.00,,,0.00,0,Wunderground v.1.15,2013-01-16 05:35:00,
2013-01-15 23:37:00,21.7,13.4,30.13,SSE,151,4.0,8.0,70,0.00,,,0.00,0,Wunderground v.1.15,2013-01-16 05:37:00,
2013-01-15 23:40:00,21.7,13.4,30.12,South,184,1.0,4.0,70,0.00,,,0.00,0,Wunderground v.1.15,2013-01-16 05:40:00,
2013-01-15 23:42:00,21.8,13.2,30.13,South,184,3.0,4.0,69,0.00,,,0.00,0,Wunderground v.1.15,2013-01-16 05:42:00,
2013-01-15 23:45:00,21.7,13.4,30.12,SSE,165,1.0,9.0,70,0.00,,,0.00,0,Wunderground v.1.15,2013-01-16 05:45:00,
2013-01-15 23:47:00,21.6,13.0,30.12,SSW,193,2.0,9.0,69,0.00,,,0.00,0,Wunderground v.1.15,2013-01-16 05:47:00,
2013-01-15 23:50:00,21.5,13.2,30.12,SSE,151,4.0,7.0,70,0.00,,,0.00,0,Wunderground v.1.15,2013-01-16 05:50:00,
2013-01-15 23:51:00,21.5,13.2,30.12,South,173,1.0,7.0,70,0.00,,,0.00,0,Wunderground v.1.15,2013-01-16 05:51:00,
2013-01-15 23:54:00,21.5,13.2,30.11,South,190,1.0,7.0,70,0.00,,,0.00,0,Wunderground v.1.15,2013-01-16 05:54:00,
2013-01-15 23:56:00,21.4,13.1,30.11,South,189,1.0,7.0,70,0.00,,,0.00,0,Wunderground v.1.15,2013-01-16 05:56:00,
2013-01-15 23:59:00,21.3,13.0,30.11,South,189,2.0,7.0,70,0.00,,,0.00,0,Wunderground v.1.15,2013-01-16 05:59:00,